Time,TemperatureF,DewpointF,PressureIn,WindDirection,WindDirectionDegrees,WindSpeedMPH,WindSpeedGustMPH,Humidity,HourlyPrecipIn,Conditions,Clouds,dailyrainin,SoftwareType,DateUTC
2013-05-08 00:01:00,61.6,45.3,30.02,NE,40,0.0,0.0,55,0.00,,,0.00,Wunderground v.1.15,2013-05-08 04:01:00,
2013-05-08 00:02:00,61.6,45.3,30.02,NE,40,0.0,0.0,55,0.00,,,0.00,Wunderground v.1.15,2013-05-08 04:02:00,
2013-05-08 00:03:00,61.6,45.7,30.02,NE,41,0.0,0.0,56,0.00,,,0.00,Wunderground v.1.15,2013-05-08 04:03:00,
2013-05-08 00:04:00,61.5,45.7,30.02,NE,40,0.0,0.0,56,0.00,,,0.00,Wunderground v.1.15,2013-05-08 04:04:00,
2013-05-08 00:06:00,61.4,46.0,30.02,NE,41,0.0,0.0,57,0.00,,,0.00,Wunderground v.1.15,2013-05-08 04:06:00,
2013-05-08 00:08:00,61.3,46.4,30.01,NE,40,0.0,0.0,58,0.00,,,0.00,Wunderground v.1.15,2013-05-08 04:08:00,
2013-05-08 00:10:00,61.1,46.2,30.01,NE,40,0.0,0.0,58,0.00,,,0.00,Wunderground v.1.15,2013-05-08 04:10:00,
2013-05-08 00:13:00,60.9,46.5,30.01,NE,41,0.0,0.0,59,0.00,,,0.00,Wunderground v.1.15,2013-05-08 04:13:00,
2013-05-08 00:14:00,60.8,46.8,30.01,NE,40,0.0,0.0,60,0.00,,,0.00,Wunderground v.1.15,2013-05-08 04:14:00,
2013-05-08 00:17:00,60.5,46.5,30.01,NE,40,0.0,0.0,60,0.00,,,0.00,Wunderground v.1.15,2013-05-08 04:17:00,
2013-05-08 00:18:00,60.4,46.9,30.01,NE,40,0.0,0.0,61,0.00,,,0.00,Wunderground v.1.15,2013-05-08 04:18:00,
2013-05-08 00:19:00,60.3,46.8,30.01,NE,40,0.0,0.0,61,0.00,,,0.00,Wunderground v.1.15,2013-05-08 04:19:00,
2013-05-08 00:20:00,60.2,46.7,30.01,NE,41,0.0,0.0,61,0.00,,,0.00,Wunderground v.1.15,2013-05-08 04:20:00,
2013-05-08 00:23:00,60.0,47.4,30.01,NE,41,0.0,0.0,63,0.00,,,0.00,Wunderground v.1.15,2013-05-08 04:23:00,
2013-05-08 00:25:00,59.8,47.6,30.01,NE,40,0.0,0.0,64,0.00,,,0.00,Wunderground v.1.15,2013-05-08 04:25:00,
2013-05-08 00:27:00,59.6,47.4,30.01,NE,40,0.0,0.0,64,0.00,,,0.00,Wunderground v.1.15,2013-05-08 04:27:00,
2013-05-08 00:28:00,59.5,47.7,30.01,NE,40,0.0,0.0,65,0.00,,,0.00,Wunderground v.1.15,2013-05-08 04:28:00,
2013-05-08 00:31:00,59.3,47.5,30.01,NE,40,0.0,0.0,65,0.00,,,0.00,Wunderground v.1.15,2013-05-08 04:31:00,
2013-05-08 00:32:00,59.2,47.4,30.01,NE,40,0.0,0.0,65,0.00,,,0.00,Wunderground v.1.15,2013-05-08 04:32:00,
2013-05-08 00:36:00,59.1,47.3,30.01,NE,40,0.0,1.0,65,0.00,,,0.00,Wunderground v.1.15,2013-05-08 04:36:00,
2013-05-08 00:37:00,59.1,47.3,30.01,NE,40,0.0,1.0,65,0.00,,,0.00,Wunderground v.1.15,2013-05-08 04:37:00,
2013-05-08 00:41:00,59.4,46.4,30.01,NE,40,0.0,0.0,62,0.00,,,0.00,Wunderground v.1.15,2013-05-08 04:41:00,
2013-05-08 00:42:00,59.5,46.5,30.01,NE,40,0.0,0.0,62,0.00,,,0.00,Wunderground v.1.15,2013-05-08 04:42:00,
2013-05-08 00:43:00,59.5,46.0,30.01,NE,40,0.0,0.0,61,0.00,,,0.00,Wunderground v.1.15,2013-05-08 04:43:00,
2013-05-08 00:45:00,59.6,46.1,30.01,NE,40,0.0,0.0,61,0.00,,,0.00,Wunderground v.1.15,2013-05-08 04:45:00,
2013-05-08 00:47:00,59.7,45.8,30.01,NE,40,0.0,0.0,60,0.00,,,0.00,Wunderground v.1.15,2013-05-08 04:47:00,
2013-05-08 00:49:00,59.8,45.9,30.01,NE,40,0.0,0.0,60,0.00,,,0.00,Wunderground v.1.15,2013-05-08 04:49:00,
2013-05-08 00:50:00,59.8,45.4,30.01,NE,40,0.0,0.0,59,0.00,,,0.00,Wunderground v.1.15,2013-05-08 04:50:00,
2013-05-08 00:55:00,59.8,45.9,30.01,NE,40,0.0,0.0,60,0.00,,,0.00,Wunderground v.1.15,2013-05-08 04:55:00,
2013-05-08 00:56:00,59.8,45.4,30.01,NE,40,0.0,0.0,59,0.00,,,0.00,Wunderground v.1.15,2013-05-08 04:56:00,
2013-05-08 01:01:00,59.5,46.5,30.01,NE,40,0.0,0.0,62,0.00,,,0.00,Wunderground v.1.15,2013-05-08 05:01:00,
2013-05-08 01:02:00,59.5,46.5,30.01,NE,41,0.0,0.0,62,0.00,,,0.00,Wunderground v.1.15,2013-05-08 05:02:00,
2013-05-08 01:03:00,59.4,46.8,30.01,NE,41,0.0,0.0,63,0.00,,,0.00,Wunderground v.1.15,2013-05-08 05:03:00,
2013-05-08 01:06:00,59.1,46.5,30.01,NE,40,0.0,0.0,63,0.00,,,0.00,Wunderground v.1.15,2013-05-08 05:06:00,
2013-05-08 01:08:00,59.0,46.8,30.01,NE,40,0.0,0.0,64,0.00,,,0.00,Wunderground v.1.15,2013-05-08 05:08:00,
2013-05-08 01:10:00,58.8,47.1,30.01,NE,40,0.0,0.0,65,0.00,,,0.00,Wunderground v.1.15,2013-05-08 05:10:00,
2013-05-08 01:12:00,58.7,47.4,30.01,NE,40,0.0,0.0,66,0.00,,,0.00,Wunderground v.1.15,2013-05-08 05:12:00,
2013-05-08 01:13:00,58.6,47.3,30.01,NE,40,0.0,0.0,66,0.00,,,0.00,Wunderground v.1.15,2013-05-08 05:13:00,
2013-05-08 01:15:00,58.4,47.5,30.01,NE,40,0.0,0.0,67,0.00,,,0.00,Wunderground v.1.15,2013-05-08 05:15:00,
2013-05-08 01:18:00,58.2,48.1,30.01,NE,41,0.0,0.0,69,0.00,,,0.00,Wunderground v.1.15,2013-05-08 05:18:00,
2013-05-08 01:20:00,58.2,48.5,30.01,NE,40,0.0,0.0,70,0.00,,,0.00,Wunderground v.1.15,2013-05-08 05:20:00,
2013-05-08 01:21:00,58.1,48.7,30.01,NE,41,0.0,0.0,71,0.00,,,0.00,Wunderground v.1.15,2013-05-08 05:21:00,
2013-05-08 01:26:00,58.0,48.6,30.01,NE,40,0.0,0.0,71,0.00,,,0.00,Wunderground v.1.15,2013-05-08 05:26:00,
2013-05-08 01:27:00,57.9,48.9,30.01,NE,41,0.0,0.0,72,0.00,,,0.00,Wunderground v.1.15,2013-05-08 05:27:00,
2013-05-08 01:28:00,57.9,48.9,30.01,NE,40,0.0,0.0,72,0.00,,,0.00,Wunderground v.1.15,2013-05-08 05:28:00,
2013-05-08 01:29:00,57.9,48.9,30.01,NE,41,0.0,0.0,72,0.00,,,0.00,Wunderground v.1.15,2013-05-08 05:29:00,
2013-05-08 01:32:00,57.9,48.9,30.01,NE,40,0.0,0.0,72,0.00,,,0.00,Wunderground v.1.15,2013-05-08 05:32:00,
2013-05-08 01:33:00,57.9,49.3,30.00,NE,40,0.0,0.0,73,0.00,,,0.00,Wunderground v.1.15,2013-05-08 05:33:00,
2013-05-08 01:34:00,57.9,49.3,30.01,NE,40,0.0,0.0,73,0.00,,,0.00,Wunderground v.1.15,2013-05-08 05:34:00,
2013-05-08 01:35:00,57.9,49.3,30.01,NE,40,0.0,0.0,73,0.00,,,0.00,Wunderground v.1.15,2013-05-08 05:35:00,
2013-05-08 01:37:00,57.9,49.7,30.00,NE,40,0.0,0.0,74,0.00,,,0.00,Wunderground v.1.15,2013-05-08 05:37:00,
2013-05-08 01:40:00,57.8,49.9,30.00,NE,40,0.0,0.0,75,0.00,,,0.00,Wunderground v.1.15,2013-05-08 05:40:00,
2013-05-08 01:41:00,57.8,49.9,30.00,NE,40,0.0,0.0,75,0.00,,,0.00,Wunderground v.1.15,2013-05-08 05:41:00,
2013-05-08 01:45:00,57.7,50.2,30.00,NE,41,0.0,0.0,76,0.00,,,0.00,Wunderground v.1.15,2013-05-08 05:45:00,
2013-05-08 01:46:00,57.7,49.8,30.00,NE,40,0.0,0.0,75,0.00,,,0.00,Wunderground v.1.15,2013-05-08 05:46:00,
2013-05-08 01:49:00,57.6,49.7,30.00,NE,41,0.0,0.0,75,0.00,,,0.00,Wunderground v.1.15,2013-05-08 05:49:00,
2013-05-08 01:51:00,57.6,49.7,30.00,NE,40,0.0,0.0,75,0.00,,,0.00,Wunderground v.1.15,2013-05-08 05:51:00,
2013-05-08 01:52:00,57.6,49.4,30.00,NE,40,0.0,0.0,74,0.00,,,0.00,Wunderground v.1.15,2013-05-08 05:52:00,
2013-05-08 01:55:00,57.8,49.2,30.00,NE,40,0.0,0.0,73,0.00,,,0.00,Wunderground v.1.15,2013-05-08 05:55:00,
2013-05-08 01:56:00,57.8,49.2,30.00,NE,40,0.0,0.0,73,0.00,,,0.00,Wunderground v.1.15,2013-05-08 05:56:00,
2013-05-08 01:57:00,57.9,48.9,30.00,NE,40,0.0,0.0,72,0.00,,,0.00,Wunderground v.1.15,2013-05-08 05:57:00,
2013-05-08 01:58:00,58.0,49.0,30.00,NE,41,0.0,0.0,72,0.00,,,0.00,Wunderground v.1.15,2013-05-08 05:58:00,
2013-05-08 02:00:00,58.0,49.0,30.00,NE,40,0.0,0.0,72,0.00,,,0.00,Wunderground v.1.15,2013-05-08 06:00:00,
2013-05-08 02:02:00,58.0,49.0,29.99,NE,40,0.0,0.0,72,0.00,,,0.00,Wunderground v.1.15,2013-05-08 06:02:00,
2013-05-08 02:05:00,58.0,49.0,29.99,NE,40,0.0,0.0,72,0.00,,,0.00,Wunderground v.1.15,2013-05-08 06:05:00,
2013-05-08 02:06:00,58.0,49.0,29.99,NE,40,0.0,0.0,72,0.00,,,0.00,Wunderground v.1.15,2013-05-08 06:06:00,
2013-05-08 02:07:00,58.0,49.0,29.99,NE,40,0.0,0.0,72,0.00,,,0.00,Wunderground v.1.15,2013-05-08 06:07:00,
2013-05-08 02:11:00,58.1,48.7,29.99,NE,40,0.0,0.0,71,0.00,,,0.00,Wunderground v.1.15,2013-05-08 06:11:00,
2013-05-08 02:12:00,58.2,48.8,29.99,NE,40,0.0,0.0,71,0.00,,,0.00,Wunderground v.1.15,2013-05-08 06:12:00,
2013-05-08 02:15:00,58.3,47.4,29.99,NE,40,0.0,0.0,67,0.00,,,0.00,Wunderground v.1.15,2013-05-08 06:15:00,
2013-05-08 02:17:00,58.4,46.3,29.99,NE,40,0.0,0.0,64,0.00,,,0.00,Wunderground v.1.15,2013-05-08 06:17:00,
2013-05-08 02:18:00,58.4,45.8,29.99,NE,41,0.0,0.0,63,0.00,,,0.00,Wunderground v.1.15,2013-05-08 06:18:00,
2013-05-08 02:20:00,58.6,45.6,29.99,NE,40,0.0,0.0,62,0.00,,,0.00,Wunderground v.1.15,2013-05-08 06:20:00,
2013-05-08 02:22:00,58.6,45.6,29.99,NE,41,0.0,0.0,62,0.00,,,0.00,Wunderground v.1.15,2013-05-08 06:22:00,
2013-05-08 02:23:00,58.7,45.3,29.99,NE,40,0.0,0.0,61,0.00,,,0.00,Wunderground v.1.15,2013-05-08 06:23:00,
2013-05-08 02:25:00,58.7,45.3,29.99,NE,40,0.0,0.0,61,0.00,,,0.00,Wunderground v.1.15,2013-05-08 06:25:00,
2013-05-08 02:27:00,58.8,45.4,29.99,NE,40,0.0,0.0,61,0.00,,,0.00,Wunderground v.1.15,2013-05-08 06:27:00,
2013-05-08 02:30:00,58.8,46.2,29.99,NE,40,0.0,0.0,63,0.00,,,0.00,Wunderground v.1.15,2013-05-08 06:30:00,
2013-05-08 02:32:00,58.8,46.2,29.99,NE,40,0.0,0.0,63,0.00,,,0.00,Wunderground v.1.15,2013-05-08 06:32:00,
2013-05-08 02:33:00,58.7,46.1,29.99,NE,41,0.0,0.0,63,0.00,,,0.00,Wunderground v.1.15,2013-05-08 06:33:00,
2013-05-08 02:37:00,58.6,46.0,29.99,NE,40,0.0,0.0,63,0.00,,,0.00,Wunderground v.1.15,2013-05-08 06:37:00,
2013-05-08 02:39:00,58.5,46.4,29.99,NE,40,0.0,0.0,64,0.00,,,0.00,Wunderground v.1.15,2013-05-08 06:39:00,
2013-05-08 02:42:00,58.4,45.8,29.99,NE,40,0.0,0.0,63,0.00,,,0.00,Wunderground v.1.15,2013-05-08 06:42:00,
2013-05-08 02:44:00,58.4,45.8,29.99,NE,40,0.0,0.0,63,0.00,,,0.00,Wunderground v.1.15,2013-05-08 06:44:00,
2013-05-08 02:45:00,58.4,45.4,29.98,NE,41,0.0,0.0,62,0.00,,,0.00,Wunderground v.1.15,2013-05-08 06:45:00,
2013-05-08 02:49:00,58.5,45.9,29.98,NE,40,0.0,0.0,63,0.00,,,0.00,Wunderground v.1.15,2013-05-08 06:49:00,
2013-05-08 02:50:00,58.4,45.8,29.98,NE,40,0.0,0.0,63,0.00,,,0.00,Wunderground v.1.15,2013-05-08 06:50:00,
2013-05-08 02:53:00,58.4,45.4,29.98,NE,40,0.0,0.0,62,0.00,,,0.00,Wunderground v.1.15,2013-05-08 06:53:00,
2013-05-08 02:55:00,58.4,45.8,29.98,NE,41,0.0,0.0,63,0.00,,,0.00,Wunderground v.1.15,2013-05-08 06:55:00,
2013-05-08 02:56:00,58.4,45.8,29.98,NE,40,0.0,0.0,63,0.00,,,0.00,Wunderground v.1.15,2013-05-08 06:56:00,
2013-05-08 02:58:00,58.3,45.3,29.98,NE,40,0.0,0.0,62,0.00,,,0.00,Wunderground v.1.15,2013-05-08 06:58:00,
2013-05-08 03:00:00,58.3,45.3,29.98,NE,40,0.0,0.0,62,0.00,,,0.00,Wunderground v.1.15,2013-05-08 07:00:00,
2013-05-08 03:01:00,58.3,45.3,29.98,NE,40,0.0,0.0,62,0.00,,,0.00,Wunderground v.1.15,2013-05-08 07:01:00,
2013-05-08 03:04:00,58.2,45.7,29.98,NE,40,0.0,0.0,63,0.00,,,0.00,Wunderground v.1.15,2013-05-08 07:04:00,
2013-05-08 03:06:00,58.2,45.7,29.98,NE,41,0.0,0.0,63,0.00,,,0.00,Wunderground v.1.15,2013-05-08 07:06:00,
2013-05-08 03:07:00,58.1,45.6,29.98,NE,40,0.0,0.0,63,0.00,,,0.00,Wunderground v.1.15,2013-05-08 07:07:00,
2013-05-08 03:09:00,58.1,45.6,29.98,NE,40,0.0,0.0,63,0.00,,,0.00,Wunderground v.1.15,2013-05-08 07:09:00,
2013-05-08 03:10:00,58.1,45.6,29.98,NE,40,0.0,0.0,63,0.00,,,0.00,Wunderground v.1.15,2013-05-08 07:10:00,
2013-05-08 03:11:00,58.1,45.6,29.98,NE,40,0.0,0.0,63,0.00,,,0.00,Wunderground v.1.15,2013-05-08 07:11:00,
2013-05-08 03:13:00,58.1,45.1,29.98,NE,40,0.0,0.0,62,0.00,,,0.00,Wunderground v.1.15,2013-05-08 07:13:00,
2013-05-08 03:14:00,58.1,46.0,29.98,NE,40,0.0,0.0,64,0.00,,,0.00,Wunderground v.1.15,2013-05-08 07:14:00,
2013-05-08 03:15:00,58.0,45.5,29.98,NE,40,0.0,0.0,63,0.00,,,0.00,Wunderground v.1.15,2013-05-08 07:15:00,
2013-05-08 03:18:00,57.9,45.0,29.98,NE,40,0.0,0.0,62,0.00,,,0.00,Wunderground v.1.15,2013-05-08 07:18:00,
2013-05-08 03:19:00,57.9,45.0,29.98,NE,40,0.0,0.0,62,0.00,,,0.00,Wunderground v.1.15,2013-05-08 07:19:00,
2013-05-08 03:20:00,57.9,45.0,29.98,NE,40,0.0,0.0,62,0.00,,,0.00,Wunderground v.1.15,2013-05-08 07:20:00,
2013-05-08 03:23:00,57.9,45.0,29.98,NE,40,0.0,0.0,62,0.00,,,0.00,Wunderground v.1.15,2013-05-08 07:23:00,
2013-05-08 03:24:00,57.9,45.4,29.98,NE,40,0.0,0.0,63,0.00,,,0.00,Wunderground v.1.15,2013-05-08 07:24:00,
2013-05-08 03:26:00,57.9,45.0,29.98,NE,40,0.0,0.0,62,0.00,,,0.00,Wunderground v.1.15,2013-05-08 07:26:00,
2013-05-08 03:28:00,58.0,45.0,29.98,NE,40,0.0,0.0,62,0.00,,,0.00,Wunderground v.1.15,2013-05-08 07:28:00,
2013-05-08 03:30:00,58.0,44.6,29.98,NE,40,0.0,0.0,61,0.00,,,0.00,Wunderground v.1.15,2013-05-08 07:30:00,
2013-05-08 03:32:00,58.1,44.7,29.98,NE,41,0.0,0.0,61,0.00,,,0.00,Wunderground v.1.15,2013-05-08 07:32:00,
2013-05-08 03:33:00,58.2,44.8,29.98,NE,41,0.0,0.0,61,0.00,,,0.00,Wunderground v.1.15,2013-05-08 07:33:00,
2013-05-08 03:36:00,58.2,45.2,29.98,NE,40,0.0,0.0,62,0.00,,,0.00,Wunderground v.1.15,2013-05-08 07:36:00,
2013-05-08 03:37:00,58.2,45.7,29.98,NE,40,0.0,0.0,63,0.00,,,0.00,Wunderground v.1.15,2013-05-08 07:37:00,
2013-05-08 03:38:00,58.2,45.7,29.98,NE,41,0.0,0.0,63,0.00,,,0.00,Wunderground v.1.15,2013-05-08 07:38:00,
2013-05-08 03:40:00,58.1,46.4,29.98,NE,40,0.0,0.0,65,0.00,,,0.00,Wunderground v.1.15,2013-05-08 07:40:00,
2013-05-08 03:42:00,58.0,47.9,29.98,NE,40,0.0,0.0,69,0.00,,,0.00,Wunderground v.1.15,2013-05-08 07:42:00,
2013-05-08 03:43:00,58.0,47.9,29.98,NE,40,0.0,0.0,69,0.00,,,0.00,Wunderground v.1.15,2013-05-08 07:43:00,
2013-05-08 03:44:00,58.0,48.3,29.98,NE,40,0.0,0.0,70,0.00,,,0.00,Wunderground v.1.15,2013-05-08 07:44:00,
2013-05-08 03:45:00,57.9,48.2,29.98,NE,40,0.0,0.0,70,0.00,,,0.00,Wunderground v.1.15,2013-05-08 07:45:00,
2013-05-08 03:47:00,57.8,48.5,29.98,NE,40,0.0,0.0,71,0.00,,,0.00,Wunderground v.1.15,2013-05-08 07:47:00,
2013-05-08 03:49:00,57.6,47.9,29.98,NE,40,0.0,0.0,70,0.00,,,0.00,Wunderground v.1.15,2013-05-08 07:49:00,
2013-05-08 03:50:00,57.5,47.8,29.98,NE,40,0.0,0.0,70,0.00,,,0.00,Wunderground v.1.15,2013-05-08 07:50:00,
2013-05-08 03:51:00,57.4,47.7,29.98,NE,40,0.0,0.0,70,0.00,,,0.00,Wunderground v.1.15,2013-05-08 07:51:00,
2013-05-08 03:55:00,57.1,46.6,29.98,NE,40,0.0,0.0,68,0.00,,,0.00,Wunderground v.1.15,2013-05-08 07:55:00,
2013-05-08 03:57:00,57.0,46.5,29.98,NE,40,0.0,0.0,68,0.00,,,0.00,Wunderground v.1.15,2013-05-08 07:57:00,
2013-05-08 03:58:00,56.9,46.4,29.98,NE,41,0.0,0.0,68,0.00,,,0.00,Wunderground v.1.15,2013-05-08 07:58:00,
2013-05-08 03:59:00,56.9,45.7,29.98,NE,40,0.0,0.0,66,0.00,,,0.00,Wunderground v.1.15,2013-05-08 07:59:00,
2013-05-08 04:01:00,56.8,45.2,29.98,NE,41,0.0,0.0,65,0.00,,,0.00,Wunderground v.1.15,2013-05-08 08:01:00,
2013-05-08 04:03:00,56.8,45.2,29.98,NE,40,0.0,0.0,65,0.00,,,0.00,Wunderground v.1.15,2013-05-08 08:03:00,
2013-05-08 04:05:00,56.8,44.7,29.98,NE,41,0.0,0.0,64,0.00,,,0.00,Wunderground v.1.15,2013-05-08 08:05:00,
2013-05-08 04:06:00,56.9,44.4,29.99,NE,40,0.0,0.0,63,0.00,,,0.00,Wunderground v.1.15,2013-05-08 08:06:00,
2013-05-08 04:08:00,56.8,44.7,29.98,NE,40,0.0,0.0,64,0.00,,,0.00,Wunderground v.1.15,2013-05-08 08:08:00,
2013-05-08 04:09:00,56.8,44.7,29.98,NE,40,0.0,0.0,64,0.00,,,0.00,Wunderground v.1.15,2013-05-08 08:09:00,
2013-05-08 04:11:00,56.7,45.1,29.98,NE,41,0.0,0.0,65,0.00,,,0.00,Wunderground v.1.15,2013-05-08 08:11:00,
2013-05-08 04:13:00,56.7,45.9,29.98,NE,40,0.0,0.0,67,0.00,,,0.00,Wunderground v.1.15,2013-05-08 08:13:00,
2013-05-08 04:15:00,56.6,46.2,29.99,NE,40,0.0,0.0,68,0.00,,,0.00,Wunderground v.1.15,2013-05-08 08:15:00,
2013-05-08 04:16:00,56.5,46.1,29.98,NE,40,0.0,0.0,68,0.00,,,0.00,Wunderground v.1.15,2013-05-08 08:16:00,
2013-05-08 04:17:00,56.5,46.1,29.98,NE,40,0.0,0.0,68,0.00,,,0.00,Wunderground v.1.15,2013-05-08 08:17:00,
2013-05-08 04:18:00,56.4,45.6,29.98,NE,40,0.0,0.0,67,0.00,,,0.00,Wunderground v.1.15,2013-05-08 08:18:00,
2013-05-08 04:21:00,56.2,45.8,29.98,NE,40,0.0,0.0,68,0.00,,,0.00,Wunderground v.1.15,2013-05-08 08:21:00,
2013-05-08 04:23:00,56.1,45.7,29.98,NE,40,0.0,0.0,68,0.00,,,0.00,Wunderground v.1.15,2013-05-08 08:23:00,
2013-05-08 04:24:00,56.0,45.2,29.98,NE,40,0.0,0.0,67,0.00,,,0.00,Wunderground v.1.15,2013-05-08 08:24:00,
2013-05-08 04:25:00,56.0,45.2,29.98,NE,40,0.0,0.0,67,0.00,,,0.00,Wunderground v.1.15,2013-05-08 08:25:00,
2013-05-08 04:26:00,55.9,45.1,29.98,NE,40,0.0,0.0,67,0.00,,,0.00,Wunderground v.1.15,2013-05-08 08:26:00,
2013-05-08 04:28:00,56.0,45.6,29.98,NE,40,0.0,0.0,68,0.00,,,0.00,Wunderground v.1.15,2013-05-08 08:28:00,
2013-05-08 04:31:00,56.1,45.3,29.98,NE,41,0.0,0.0,67,0.00,,,0.00,Wunderground v.1.15,2013-05-08 08:31:00,
2013-05-08 04:33:00,56.2,45.4,29.98,NE,40,0.0,0.0,67,0.00,,,0.00,Wunderground v.1.15,2013-05-08 08:33:00,
2013-05-08 04:35:00,56.2,44.6,29.98,NE,40,0.0,0.0,65,0.00,,,0.00,Wunderground v.1.15,2013-05-08 08:35:00,
2013-05-08 04:37:00,56.3,44.3,29.98,NE,40,0.0,0.0,64,0.00,,,0.00,Wunderground v.1.15,2013-05-08 08:37:00,
2013-05-08 04:38:00,56.2,44.2,29.98,NE,40,0.0,0.0,64,0.00,,,0.00,Wunderground v.1.15,2013-05-08 08:38:00,
2013-05-08 04:40:00,56.2,44.2,29.98,NE,40,0.0,0.0,64,0.00,,,0.00,Wunderground v.1.15,2013-05-08 08:40:00,
2013-05-08 04:41:00,56.1,44.5,29.98,NE,40,0.0,0.0,65,0.00,,,0.00,Wunderground v.1.15,2013-05-08 08:41:00,
2013-05-08 04:44:00,56.1,44.5,29.98,NE,40,0.0,0.0,65,0.00,,,0.00,Wunderground v.1.15,2013-05-08 08:44:00,
2013-05-08 04:45:00,56.0,44.4,29.98,NE,40,0.0,0.0,65,0.00,,,0.00,Wunderground v.1.15,2013-05-08 08:45:00,
2013-05-08 04:46:00,56.0,44.8,29.98,NE,40,0.0,0.0,66,0.00,,,0.00,Wunderground v.1.15,2013-05-08 08:46:00,
2013-05-08 04:48:00,55.9,44.7,29.98,NE,40,0.0,0.0,66,0.00,,,0.00,Wunderground v.1.15,2013-05-08 08:48:00,
2013-05-08 04:50:00,55.9,45.1,29.98,NE,40,0.0,0.0,67,0.00,,,0.00,Wunderground v.1.15,2013-05-08 08:50:00,
2013-05-08 04:53:00,55.9,45.1,29.98,NE,40,0.0,0.0,67,0.00,,,0.00,Wunderground v.1.15,2013-05-08 08:53:00,
2013-05-08 04:55:00,56.0,44.8,29.98,NE,40,0.0,0.0,66,0.00,,,0.00,Wunderground v.1.15,2013-05-08 08:55:00,
2013-05-08 04:58:00,56.1,44.1,29.98,NE,41,0.0,0.0,64,0.00,,,0.00,Wunderground v.1.15,2013-05-08 08:58:00,
2013-05-08 04:59:00,56.1,43.7,29.98,NE,40,0.0,0.0,63,0.00,,,0.00,Wunderground v.1.15,2013-05-08 08:59:00,
2013-05-08 05:02:00,56.3,43.4,29.97,NE,40,0.0,0.0,62,0.00,,,0.00,Wunderground v.1.15,2013-05-08 09:02:00,
2013-05-08 05:03:00,56.3,43.4,29.97,NE,40,0.0,0.0,62,0.00,,,0.00,Wunderground v.1.15,2013-05-08 09:03:00,
2013-05-08 05:04:00,56.4,43.1,29.98,NE,40,0.0,0.0,61,0.00,,,0.00,Wunderground v.1.15,2013-05-08 09:04:00,
2013-05-08 05:05:00,56.4,43.1,29.97,NE,40,0.0,0.0,61,0.00,,,0.00,Wunderground v.1.15,2013-05-08 09:05:00,
2013-05-08 05:08:00,56.5,43.2,29.98,NE,40,0.0,0.0,61,0.00,,,0.00,Wunderground v.1.15,2013-05-08 09:08:00,
2013-05-08 05:09:00,56.5,42.8,29.98,NE,40,0.0,0.0,60,0.00,,,0.00,Wunderground v.1.15,2013-05-08 09:09:00,
2013-05-08 05:13:00,56.5,43.2,29.98,NE,41,0.0,0.0,61,0.00,,,0.00,Wunderground v.1.15,2013-05-08 09:13:00,
2013-05-08 05:14:00,56.5,42.8,29.97,NE,40,0.0,0.0,60,0.00,,,0.00,Wunderground v.1.15,2013-05-08 09:14:00,
2013-05-08 05:15:00,56.4,42.7,29.97,NE,40,0.0,0.0,60,0.00,,,0.00,Wunderground v.1.15,2013-05-08 09:15:00,
2013-05-08 05:16:00,56.4,42.7,29.97,NE,40,0.0,0.0,60,0.00,,,0.00,Wunderground v.1.15,2013-05-08 09:16:00,
2013-05-08 05:17:00,56.4,42.2,29.97,NE,40,0.0,0.0,59,0.00,,,0.00,Wunderground v.1.15,2013-05-08 09:17:00,
2013-05-08 05:18:00,56.4,42.2,29.97,NE,40,0.0,0.0,59,0.00,,,0.00,Wunderground v.1.15,2013-05-08 09:18:00,
2013-05-08 05:21:00,56.5,42.3,29.97,NE,40,0.0,0.0,59,0.00,,,0.00,Wunderground v.1.15,2013-05-08 09:21:00,
2013-05-08 05:23:00,56.5,41.9,29.97,NE,40,0.0,0.0,58,0.00,,,0.00,Wunderground v.1.15,2013-05-08 09:23:00,
2013-05-08 05:24:00,56.5,41.9,29.97,NE,40,0.0,0.0,58,0.00,,,0.00,Wunderground v.1.15,2013-05-08 09:24:00,
2013-05-08 05:25:00,56.6,42.4,29.98,NE,40,0.0,0.0,59,0.00,,,0.00,Wunderground v.1.15,2013-05-08 09:25:00,
2013-05-08 05:29:00,56.5,42.8,29.98,NE,40,0.0,0.0,60,0.00,,,0.00,Wunderground v.1.15,2013-05-08 09:29:00,
2013-05-08 05:30:00,56.4,42.7,29.98,NE,41,0.0,0.0,60,0.00,,,0.00,Wunderground v.1.15,2013-05-08 09:30:00,
2013-05-08 05:31:00,56.4,42.7,29.98,NE,41,0.0,0.0,60,0.00,,,0.00,Wunderground v.1.15,2013-05-08 09:31:00,
2013-05-08 05:34:00,56.5,42.8,29.98,NE,40,0.0,0.0,60,0.00,,,0.00,Wunderground v.1.15,2013-05-08 09:34:00,
2013-05-08 05:36:00,56.5,42.8,29.98,NE,48,0.0,1.0,60,0.00,,,0.00,Wunderground v.1.15,2013-05-08 09:36:00,
2013-05-08 05:37:00,56.5,42.8,29.98,NE,46,0.0,1.0,60,0.00,,,0.00,Wunderground v.1.15,2013-05-08 09:37:00,
2013-05-08 05:39:00,56.5,43.6,29.98,NE,46,0.0,1.0,62,0.00,,,0.00,Wunderground v.1.15,2013-05-08 09:39:00,
2013-05-08 05:40:00,56.5,43.6,29.98,NE,46,0.0,0.0,62,0.00,,,0.00,Wunderground v.1.15,2013-05-08 09:40:00,
2013-05-08 05:42:00,56.5,43.6,29.97,NE,46,0.0,0.0,62,0.00,,,0.00,Wunderground v.1.15,2013-05-08 09:42:00,
2013-05-08 05:44:00,56.4,44.0,29.97,NE,46,0.0,0.0,63,0.00,,,0.00,Wunderground v.1.15,2013-05-08 09:44:00,
2013-05-08 05:46:00,56.2,44.2,29.97,NE,46,0.0,0.0,64,0.00,,,0.00,Wunderground v.1.15,2013-05-08 09:46:00,
2013-05-08 05:47:00,56.2,44.2,29.97,NE,46,0.0,0.0,64,0.00,,,0.00,Wunderground v.1.15,2013-05-08 09:47:00,
2013-05-08 05:50:00,56.0,44.4,29.97,NE,46,0.0,0.0,65,0.00,,,0.00,Wunderground v.1.15,2013-05-08 09:50:00,
2013-05-08 05:52:00,55.9,44.7,29.97,NE,46,0.0,0.0,66,0.00,,,0.00,Wunderground v.1.15,2013-05-08 09:52:00,
2013-05-08 05:53:00,55.8,44.2,29.97,NE,46,0.0,0.0,65,0.00,,,0.00,Wunderground v.1.15,2013-05-08 09:53:00,
2013-05-08 05:54:00,55.8,44.6,29.97,NE,46,0.0,0.0,66,0.00,,,0.00,Wunderground v.1.15,2013-05-08 09:54:00,
2013-05-08 05:55:00,55.8,44.2,29.97,NE,46,0.0,0.0,65,0.00,,,0.00,Wunderground v.1.15,2013-05-08 09:55:00,
2013-05-08 06:00:00,55.8,43.0,29.97,NNE,32,0.0,0.0,62,0.00,,,0.00,Wunderground v.1.15,2013-05-08 10:00:00,
2013-05-08 06:01:00,55.9,43.1,29.97,NNE,32,0.0,0.0,62,0.00,,,0.00,Wunderground v.1.15,2013-05-08 10:01:00,
2013-05-08 06:04:00,55.9,43.1,29.98,NNE,32,0.0,0.0,62,0.00,,,0.00,Wunderground v.1.15,2013-05-08 10:04:00,
2013-05-08 06:07:00,55.9,43.1,29.97,NNE,32,0.0,0.0,62,0.00,,,0.00,Wunderground v.1.15,2013-05-08 10:07:00,
2013-05-08 06:09:00,55.8,43.4,29.97,NNE,32,0.0,0.0,63,0.00,,,0.00,Wunderground v.1.15,2013-05-08 10:09:00,
2013-05-08 06:10:00,55.8,43.4,29.97,NNE,32,0.0,0.0,63,0.00,,,0.00,Wunderground v.1.15,2013-05-08 10:10:00,
2013-05-08 06:13:00,55.7,44.1,29.97,NNE,32,0.0,0.0,65,0.00,,,0.00,Wunderground v.1.15,2013-05-08 10:13:00,
2013-05-08 06:14:00,55.6,43.6,29.98,NNE,32,0.0,0.0,64,0.00,,,0.00,Wunderground v.1.15,2013-05-08 10:14:00,
2013-05-08 06:15:00,55.6,43.2,29.98,NNE,32,0.0,0.0,63,0.00,,,0.00,Wunderground v.1.15,2013-05-08 10:15:00,
2013-05-08 06:17:00,55.5,43.1,29.98,NNE,32,0.0,0.0,63,0.00,,,0.00,Wunderground v.1.15,2013-05-08 10:17:00,
2013-05-08 06:18:00,55.5,43.1,29.98,NNE,32,0.0,0.0,63,0.00,,,0.00,Wunderground v.1.15,2013-05-08 10:18:00,
2013-05-08 06:21:00,55.5,43.9,29.98,NNE,32,0.0,0.0,65,0.00,,,0.00,Wunderground v.1.15,2013-05-08 10:21:00,
2013-05-08 06:22:00,55.5,43.5,29.98,NNE,32,0.0,0.0,64,0.00,,,0.00,Wunderground v.1.15,2013-05-08 10:22:00,
2013-05-08 06:24:00,55.5,43.1,29.98,NNE,32,0.0,0.0,63,0.00,,,0.00,Wunderground v.1.15,2013-05-08 10:24:00,
2013-05-08 06:25:00,55.6,43.2,29.98,NNE,32,0.0,0.0,63,0.00,,,0.00,Wunderground v.1.15,2013-05-08 10:25:00,
2013-05-08 06:27:00,55.5,42.7,29.98,NNE,32,0.0,0.0,62,0.00,,,0.00,Wunderground v.1.15,2013-05-08 10:27:00,
2013-05-08 06:28:00,55.5,43.1,29.98,NNE,32,0.0,0.0,63,0.00,,,0.00,Wunderground v.1.15,2013-05-08 10:28:00,
2013-05-08 06:30:00,55.6,43.2,29.98,NNE,32,0.0,0.0,63,0.00,,,0.00,Wunderground v.1.15,2013-05-08 10:30:00,
2013-05-08 06:31:00,55.6,42.8,29.98,NNE,32,0.0,0.0,62,0.00,,,0.00,Wunderground v.1.15,2013-05-08 10:31:00,
2013-05-08 06:33:00,55.7,43.3,29.98,NNE,32,0.0,0.0,63,0.00,,,0.00,Wunderground v.1.15,2013-05-08 10:33:00,
2013-05-08 06:35:00,55.8,43.8,29.98,NNE,32,0.0,0.0,64,0.00,,,0.00,Wunderground v.1.15,2013-05-08 10:35:00,
2013-05-08 06:36:00,55.8,43.8,29.98,NNE,32,0.0,0.0,64,0.00,,,0.00,Wunderground v.1.15,2013-05-08 10:36:00,
2013-05-08 06:37:00,55.8,43.4,29.98,NNE,32,0.0,0.0,63,0.00,,,0.00,Wunderground v.1.15,2013-05-08 10:37:00,
2013-05-08 06:38:00,55.8,43.4,29.97,NNE,32,0.0,0.0,63,0.00,,,0.00,Wunderground v.1.15,2013-05-08 10:38:00,
2013-05-08 06:39:00,55.8,43.8,29.98,NNE,32,0.0,0.0,64,0.00,,,0.00,Wunderground v.1.15,2013-05-08 10:39:00,
2013-05-08 06:44:00,55.9,43.9,29.98,NNE,32,0.0,0.0,64,0.00,,,0.00,Wunderground v.1.15,2013-05-08 10:44:00,
2013-05-08 06:45:00,55.9,44.3,29.98,NNE,32,0.0,0.0,65,0.00,,,0.00,Wunderground v.1.15,2013-05-08 10:45:00,
2013-05-08 06:46:00,56.0,44.4,29.98,NNE,32,0.0,0.0,65,0.00,,,0.00,Wunderground v.1.15,2013-05-08 10:46:00,
2013-05-08 06:47:00,56.0,44.4,29.98,NNE,31,0.0,0.0,65,0.00,,,0.00,Wunderground v.1.15,2013-05-08 10:47:00,
2013-05-08 06:50:00,56.0,44.4,29.98,NNE,32,0.0,0.0,65,0.00,,,0.00,Wunderground v.1.15,2013-05-08 10:50:00,
2013-05-08 06:51:00,56.1,44.5,29.98,NNE,32,0.0,0.0,65,0.00,,,0.00,Wunderground v.1.15,2013-05-08 10:51:00,
2013-05-08 06:52:00,56.1,44.5,29.98,NNE,31,0.0,0.0,65,0.00,,,0.00,Wunderground v.1.15,2013-05-08 10:52:00,
2013-05-08 06:53:00,56.2,44.6,29.98,NE,46,0.0,2.0,65,0.00,,,0.00,Wunderground v.1.15,2013-05-08 10:53:00,
2013-05-08 06:56:00,56.4,44.4,29.98,NNE,29,1.0,2.0,64,0.00,,,0.00,Wunderground v.1.15,2013-05-08 10:56:00,
2013-05-08 06:57:00,56.5,44.5,29.98,North,8,1.0,2.0,64,0.00,,,0.00,Wunderground v.1.15,2013-05-08 10:57:00,
2013-05-08 07:00:00,56.7,44.7,29.98,North,8,1.0,1.0,64,0.00,,,0.00,Wunderground v.1.15,2013-05-08 11:00:00,
2013-05-08 07:02:00,56.9,45.3,29.98,North,8,1.0,1.0,65,0.00,,,0.00,Wunderground v.1.15,2013-05-08 11:02:00,
2013-05-08 07:04:00,57.2,45.1,29.98,North,5,0.0,1.0,64,0.00,,,0.00,Wunderground v.1.15,2013-05-08 11:04:00,
2013-05-08 07:05:00,57.4,44.9,29.98,North,5,0.0,1.0,63,0.00,,,0.00,Wunderground v.1.15,2013-05-08 11:05:00,
2013-05-08 07:07:00,57.7,44.8,29.98,North,5,0.0,1.0,62,0.00,,,0.00,Wunderground v.1.15,2013-05-08 11:07:00,
2013-05-08 07:08:00,57.9,45.0,29.98,North,7,0.0,1.0,62,0.00,,,0.00,Wunderground v.1.15,2013-05-08 11:08:00,
2013-05-08 07:10:00,58.3,44.9,29.98,North,7,0.0,0.0,61,0.00,,,0.00,Wunderground v.1.15,2013-05-08 11:10:00,
2013-05-08 07:14:00,58.9,45.0,29.99,NE,46,0.0,1.0,60,0.00,,,0.00,Wunderground v.1.15,2013-05-08 11:14:00,
2013-05-08 07:15:00,59.1,45.2,29.99,NE,42,0.0,1.0,60,0.00,,,0.00,Wunderground v.1.15,2013-05-08 11:15:00,
2013-05-08 07:17:00,59.4,45.1,29.99,NNE,12,0.0,1.0,59,0.00,,,0.00,Wunderground v.1.15,2013-05-08 11:17:00,
2013-05-08 07:21:00,59.9,45.1,29.98,NW,323,1.0,1.0,58,0.00,,,0.00,Wunderground v.1.15,2013-05-08 11:21:00,
2013-05-08 07:23:00,60.1,45.3,29.98,NE,56,1.0,1.0,58,0.00,,,0.00,Wunderground v.1.15,2013-05-08 11:23:00,
2013-05-08 07:24:00,60.3,45.0,29.98,NNE,19,0.0,1.0,57,0.00,,,0.00,Wunderground v.1.15,2013-05-08 11:24:00,
2013-05-08 07:26:00,60.7,45.4,29.98,NNW,336,0.0,1.0,57,0.00,,,0.00,Wunderground v.1.15,2013-05-08 11:26:00,
2013-05-08 07:28:00,60.9,45.1,29.98,NNE,25,0.0,1.0,56,0.00,,,0.00,Wunderground v.1.15,2013-05-08 11:28:00,
2013-05-08 07:29:00,61.2,45.4,29.98,NNE,25,0.0,1.0,56,0.00,,,0.00,Wunderground v.1.15,2013-05-08 11:29:00,
2013-05-08 07:32:00,61.5,44.7,29.98,NNW,327,0.0,1.0,54,0.00,,,0.00,Wunderground v.1.15,2013-05-08 11:32:00,
2013-05-08 07:34:00,61.7,45.4,29.98,NNW,328,0.0,1.0,55,0.00,,,0.00,Wunderground v.1.15,2013-05-08 11:34:00,
2013-05-08 07:35:00,61.8,45.0,29.99,NNW,327,0.0,1.0,54,0.00,,,0.00,Wunderground v.1.15,2013-05-08 11:35:00,
2013-05-08 07:36:00,62.0,45.6,29.99,NNW,327,0.0,1.0,55,0.00,,,0.00,Wunderground v.1.15,2013-05-08 11:36:00,
2013-05-08 07:37:00,62.1,45.7,29.99,NNW,328,0.0,1.0,55,0.00,,,0.00,Wunderground v.1.15,2013-05-08 11:37:00,
2013-05-08 07:41:00,62.8,46.4,29.99,NNW,327,0.0,0.0,55,0.00,,,0.00,Wunderground v.1.15,2013-05-08 11:41:00,
2013-05-08 07:42:00,63.0,46.1,29.99,NNW,328,0.0,0.0,54,0.00,,,0.00,Wunderground v.1.15,2013-05-08 11:42:00,
2013-05-08 07:44:00,63.3,45.9,29.99,NNE,28,0.0,1.0,53,0.00,,,0.00,Wunderground v.1.15,2013-05-08 11:44:00,
2013-05-08 07:46:00,63.4,46.0,29.99,NE,49,0.0,3.0,53,0.00,,,0.00,Wunderground v.1.15,2013-05-08 11:46:00,
2013-05-08 07:49:00,63.3,45.9,29.99,NNE,30,1.0,3.0,53,0.00,,,0.00,Wunderground v.1.15,2013-05-08 11:49:00,
2013-05-08 07:50:00,63.2,46.3,29.99,North,1,1.0,1.0,54,0.00,,,0.00,Wunderground v.1.15,2013-05-08 11:50:00,
2013-05-08 07:51:00,63.1,46.2,29.99,North,358,1.0,1.0,54,0.00,,,0.00,Wunderground v.1.15,2013-05-08 11:51:00,
2013-05-08 07:52:00,63.1,46.2,29.99,North,358,1.0,1.0,54,0.00,,,0.00,Wunderground v.1.15,2013-05-08 11:52:00,
2013-05-08 07:55:00,63.4,46.9,29.99,North,358,1.0,1.0,55,0.00,,,0.00,Wunderground v.1.15,2013-05-08 11:55:00,
2013-05-08 07:57:00,63.8,47.3,29.99,North,358,1.0,1.0,55,0.00,,,0.00,Wunderground v.1.15,2013-05-08 11:57:00,
2013-05-08 08:02:00,64.5,47.0,29.99,North,358,0.0,0.0,53,0.00,,,0.00,Wunderground v.1.15,2013-05-08 12:02:00,
2013-05-08 08:03:00,64.6,47.1,29.99,NNE,24,0.0,0.0,53,0.00,,,0.00,Wunderground v.1.15,2013-05-08 12:03:00,
2013-05-08 08:05:00,64.7,47.2,29.99,NNE,22,0.0,0.0,53,0.00,,,0.00,Wunderground v.1.15,2013-05-08 12:05:00,
2013-05-08 08:08:00,64.9,47.4,29.99,NNW,327,0.0,1.0,53,0.00,,,0.00,Wunderground v.1.15,2013-05-08 12:08:00,
2013-05-08 08:09:00,65.0,46.9,30.00,NW,323,0.0,1.0,52,0.00,,,0.00,Wunderground v.1.15,2013-05-08 12:09:00,
2013-05-08 08:10:00,65.0,46.9,29.99,NW,323,0.0,0.0,52,0.00,,,0.00,Wunderground v.1.15,2013-05-08 12:10:00,
2013-05-08 08:13:00,65.0,46.9,30.00,NNW,347,0.0,1.0,52,0.00,,,0.00,Wunderground v.1.15,2013-05-08 12:13:00,
2013-05-08 08:14:00,65.1,47.0,30.00,NNW,347,0.0,1.0,52,0.00,,,0.00,Wunderground v.1.15,2013-05-08 12:14:00,
2013-05-08 08:15:00,65.2,47.1,30.00,ENE,66,0.0,1.0,52,0.00,,,0.00,Wunderground v.1.15,2013-05-08 12:15:00,
2013-05-08 08:16:00,65.2,46.6,30.00,NNW,332,0.0,1.0,51,0.00,,,0.00,Wunderground v.1.15,2013-05-08 12:16:00,
2013-05-08 08:19:00,65.1,47.0,30.00,North,354,1.0,3.0,52,0.00,,,0.00,Wunderground v.1.15,2013-05-08 12:19:00,
2013-05-08 08:20:00,65.1,47.0,30.00,North,351,0.0,0.0,52,0.00,,,0.00,Wunderground v.1.15,2013-05-08 12:20:00,
2013-05-08 08:22:00,65.2,47.1,30.00,North,351,0.0,0.0,52,0.00,,,0.00,Wunderground v.1.15,2013-05-08 12:22:00,
2013-05-08 08:24:00,65.5,47.9,30.00,North,1,0.0,0.0,53,0.00,,,0.00,Wunderground v.1.15,2013-05-08 12:24:00,
2013-05-08 08:25:00,65.9,47.8,30.00,NE,43,0.0,1.0,52,0.00,,,0.00,Wunderground v.1.15,2013-05-08 12:25:00,
2013-05-08 08:29:00,66.4,47.7,30.00,NE,35,0.0,1.0,51,0.00,,,0.00,Wunderground v.1.15,2013-05-08 12:29:00,
2013-05-08 08:30:00,66.6,48.4,30.00,NE,35,0.0,0.0,52,0.00,,,0.00,Wunderground v.1.15,2013-05-08 12:30:00,
2013-05-08 08:32:00,66.7,47.5,30.00,NNW,348,0.0,2.0,50,0.00,,,0.00,Wunderground v.1.15,2013-05-08 12:32:00,
2013-05-08 08:35:00,66.9,47.6,30.00,NNE,21,0.0,2.0,50,0.00,,,0.00,Wunderground v.1.15,2013-05-08 12:35:00,
2013-05-08 08:36:00,67.0,47.7,30.00,NNE,21,0.0,2.0,50,0.00,,,0.00,Wunderground v.1.15,2013-05-08 12:36:00,
2013-05-08 08:37:00,67.2,47.9,30.00,NNE,21,0.0,2.0,50,0.00,,,0.00,Wunderground v.1.15,2013-05-08 12:37:00,
2013-05-08 08:41:00,67.6,47.8,30.00,NE,49,0.0,0.0,49,0.00,,,0.00,Wunderground v.1.15,2013-05-08 12:41:00,
2013-05-08 08:42:00,67.7,47.8,30.00,NE,49,0.0,0.0,49,0.00,,,0.00,Wunderground v.1.15,2013-05-08 12:42:00,
2013-05-08 08:43:00,67.8,48.5,30.00,NE,48,0.0,2.0,50,0.00,,,0.00,Wunderground v.1.15,2013-05-08 12:43:00,
2013-05-08 08:46:00,68.1,48.2,30.00,NE,39,0.0,2.0,49,0.00,,,0.00,Wunderground v.1.15,2013-05-08 12:46:00,
2013-05-08 08:47:00,68.1,48.2,30.00,NE,39,0.0,2.0,49,0.00,,,0.00,Wunderground v.1.15,2013-05-08 12:47:00,
2013-05-08 08:48:00,68.2,48.3,30.00,NE,41,0.0,2.0,49,0.00,,,0.00,Wunderground v.1.15,2013-05-08 12:48:00,
2013-05-08 08:49:00,68.3,48.4,30.00,NE,40,0.0,2.0,49,0.00,,,0.00,Wunderground v.1.15,2013-05-08 12:49:00,
2013-05-08 08:50:00,68.3,48.4,30.00,NE,40,0.0,1.0,49,0.00,,,0.00,Wunderground v.1.15,2013-05-08 12:50:00,
2013-05-08 08:54:00,68.5,48.6,30.00,NE,40,0.0,1.0,49,0.00,,,0.00,Wunderground v.1.15,2013-05-08 12:54:00,
2013-05-08 08:55:00,68.6,48.7,30.00,WNW,299,0.0,1.0,49,0.00,,,0.00,Wunderground v.1.15,2013-05-08 12:55:00,
2013-05-08 08:56:00,68.6,48.1,30.00,NNW,337,0.0,1.0,48,0.00,,,0.00,Wunderground v.1.15,2013-05-08 12:56:00,
2013-05-08 08:58:00,68.7,49.3,30.00,NE,52,0.0,2.0,50,0.00,,,0.00,Wunderground v.1.15,2013-05-08 12:58:00,
2013-05-08 09:01:00,68.9,48.4,30.00,ENE,76,0.0,3.0,48,0.00,,,0.00,Wunderground v.1.15,2013-05-08 13:01:00,
2013-05-08 09:02:00,69.0,49.0,30.00,ENE,76,0.0,3.0,49,0.00,,,0.00,Wunderground v.1.15,2013-05-08 13:02:00,
2013-05-08 09:03:00,69.1,49.1,30.00,ENE,73,0.0,3.0,49,0.00,,,0.00,Wunderground v.1.15,2013-05-08 13:03:00,
2013-05-08 09:06:00,69.4,49.4,30.00,ENE,71,0.0,3.0,49,0.00,,,0.00,Wunderground v.1.15,2013-05-08 13:06:00,
2013-05-08 09:10:00,70.0,48.8,30.00,NE,52,0.0,2.0,47,0.00,,,0.00,Wunderground v.1.15,2013-05-08 13:10:00,
2013-05-08 09:11:00,70.1,48.4,30.00,East,97,0.0,4.0,46,0.00,,,0.00,Wunderground v.1.15,2013-05-08 13:11:00,
2013-05-08 09:12:00,70.0,48.3,30.00,NNE,16,1.0,4.0,46,0.00,,,0.00,Wunderground v.1.15,2013-05-08 13:12:00,
2013-05-08 09:13:00,70.0,48.3,30.00,SE,125,1.0,4.0,46,0.00,,,0.00,Wunderground v.1.15,2013-05-08 13:13:00,
2013-05-08 09:14:00,70.0,48.3,30.00,NE,52,1.0,4.0,46,0.00,,,0.00,Wunderground v.1.15,2013-05-08 13:14:00,
2013-05-08 09:16:00,69.9,48.7,30.00,NNW,347,1.0,4.0,47,0.00,,,0.00,Wunderground v.1.15,2013-05-08 13:16:00,
2013-05-08 09:18:00,69.9,48.7,30.00,ENE,60,2.0,4.0,47,0.00,,,0.00,Wunderground v.1.15,2013-05-08 13:18:00,
2013-05-08 09:19:00,69.8,48.1,30.00,ENE,63,2.0,4.0,46,0.00,,,0.00,Wunderground v.1.15,2013-05-08 13:19:00,
2013-05-08 09:20:00,69.7,48.0,30.00,NE,56,3.0,3.0,46,0.00,,,0.00,Wunderground v.1.15,2013-05-08 13:20:00,
2013-05-08 09:21:00,69.6,48.5,30.00,NE,45,3.0,3.0,47,0.00,,,0.00,Wunderground v.1.15,2013-05-08 13:21:00,
2013-05-08 09:24:00,69.7,48.6,30.00,North,10,3.0,4.0,47,0.00,,,0.00,Wunderground v.1.15,2013-05-08 13:24:00,
2013-05-08 09:25:00,69.8,48.7,30.00,NNE,17,3.0,4.0,47,0.00,,,0.00,Wunderground v.1.15,2013-05-08 13:25:00,
2013-05-08 09:28:00,69.7,48.6,30.00,ENE,74,3.0,4.0,47,0.00,,,0.00,Wunderground v.1.15,2013-05-08 13:28:00,
2013-05-08 09:30:00,69.5,48.4,30.00,NE,38,3.0,3.0,47,0.00,,,0.00,Wunderground v.1.15,2013-05-08 13:30:00,
2013-05-08 09:31:00,69.5,47.8,30.00,WSW,239,3.0,3.0,46,0.00,,,0.00,Wunderground v.1.15,2013-05-08 13:31:00,
2013-05-08 09:32:00,69.4,48.3,30.00,NNW,347,3.0,3.0,47,0.00,,,0.00,Wunderground v.1.15,2013-05-08 13:32:00,
2013-05-08 09:33:00,69.5,48.4,30.00,NE,42,3.0,3.0,47,0.00,,,0.00,Wunderground v.1.15,2013-05-08 13:33:00,
2013-05-08 09:36:00,69.6,49.6,30.00,East,81,3.0,3.0,49,0.00,,,0.00,Wunderground v.1.15,2013-05-08 13:36:00,
2013-05-08 09:37:00,69.6,49.0,30.00,NNE,15,3.0,3.0,48,0.00,,,0.00,Wunderground v.1.15,2013-05-08 13:37:00,
2013-05-08 09:38:00,69.4,48.9,30.00,NNW,346,3.0,5.0,48,0.00,,,0.00,Wunderground v.1.15,2013-05-08 13:38:00,
2013-05-08 09:40:00,69.4,48.3,30.00,ENE,73,3.0,4.0,47,0.00,,,0.00,Wunderground v.1.15,2013-05-08 13:40:00,
2013-05-08 09:41:00,69.4,48.3,30.00,NE,45,3.0,4.0,47,0.00,,,0.00,Wunderground v.1.15,2013-05-08 13:41:00,
2013-05-08 09:43:00,69.5,48.9,30.00,ENE,64,3.0,4.0,48,0.00,,,0.00,Wunderground v.1.15,2013-05-08 13:43:00,
2013-05-08 09:46:00,69.6,49.0,30.00,ENE,59,3.0,7.0,48,0.00,,,0.00,Wunderground v.1.15,2013-05-08 13:46:00,
2013-05-08 09:48:00,69.6,49.0,30.00,ENE,66,3.0,7.0,48,0.00,,,0.00,Wunderground v.1.15,2013-05-08 13:48:00,
2013-05-08 09:50:00,69.6,49.0,30.00,NE,48,3.0,3.0,48,0.00,,,0.00,Wunderground v.1.15,2013-05-08 13:50:00,
2013-05-08 09:52:00,69.8,49.2,30.00,NNE,28,2.0,5.0,48,0.00,,,0.00,Wunderground v.1.15,2013-05-08 13:52:00,
2013-05-08 09:53:00,69.9,49.3,30.00,ENE,57,2.0,5.0,48,0.00,,,0.00,Wunderground v.1.15,2013-05-08 13:53:00,
2013-05-08 09:55:00,69.7,49.1,30.00,NE,53,3.0,5.0,48,0.00,,,0.00,Wunderground v.1.15,2013-05-08 13:55:00,
2013-05-08 09:57:00,69.6,49.0,30.00,ENE,78,2.0,5.0,48,0.00,,,0.00,Wunderground v.1.15,2013-05-08 13:57:00,
2013-05-08 09:59:00,69.6,50.1,30.00,NNE,28,2.0,2.0,50,0.00,,,0.00,Wunderground v.1.15,2013-05-08 13:59:00,
2013-05-08 10:01:00,69.8,49.8,30.00,ENE,60,2.0,3.0,49,0.00,,,0.00,Wunderground v.1.15,2013-05-08 14:01:00,
2013-05-08 10:02:00,69.8,49.8,30.00,NE,53,2.0,6.0,49,0.00,,,0.00,Wunderground v.1.15,2013-05-08 14:02:00,
2013-05-08 10:03:00,69.8,48.7,30.00,ENE,66,2.0,6.0,47,0.00,,,0.00,Wunderground v.1.15,2013-05-08 14:03:00,
2013-05-08 10:07:00,70.0,48.8,30.00,East,89,2.0,6.0,47,0.00,,,0.00,Wunderground v.1.15,2013-05-08 14:07:00,
2013-05-08 10:09:00,70.1,49.5,30.00,NNE,32,2.0,6.0,48,0.00,,,0.00,Wunderground v.1.15,2013-05-08 14:09:00,
2013-05-08 10:13:00,69.9,49.3,30.00,ENE,57,3.0,9.0,48,0.00,,,0.00,Wunderground v.1.15,2013-05-08 14:13:00,
2013-05-08 10:14:00,69.9,49.3,30.00,ENE,69,3.0,9.0,48,0.00,,,0.00,Wunderground v.1.15,2013-05-08 14:14:00,
2013-05-08 10:16:00,70.1,49.5,30.00,NE,56,2.0,9.0,48,0.00,,,0.00,Wunderground v.1.15,2013-05-08 14:16:00,
2013-05-08 10:19:00,70.6,50.0,30.00,East,83,2.0,9.0,48,0.00,,,0.00,Wunderground v.1.15,2013-05-08 14:19:00,
2013-05-08 10:20:00,70.6,50.0,30.00,ENE,76,2.0,3.0,48,0.00,,,0.00,Wunderground v.1.15,2013-05-08 14:20:00,
2013-05-08 10:24:00,70.5,49.9,30.00,NNE,32,2.0,5.0,48,0.00,,,0.00,Wunderground v.1.15,2013-05-08 14:24:00,
2013-05-08 10:25:00,70.6,50.0,30.00,NE,38,2.0,5.0,48,0.00,,,0.00,Wunderground v.1.15,2013-05-08 14:25:00,
2013-05-08 10:27:00,70.7,49.5,30.00,ENE,59,2.0,6.0,47,0.00,,,0.00,Wunderground v.1.15,2013-05-08 14:27:00,
2013-05-08 10:29:00,70.5,49.9,30.00,NNE,31,3.0,6.0,48,0.00,,,0.00,Wunderground v.1.15,2013-05-08 14:29:00,
2013-05-08 10:30:00,70.5,49.9,30.00,ENE,62,3.0,3.0,48,0.00,,,0.00,Wunderground v.1.15,2013-05-08 14:30:00,
2013-05-08 10:32:00,70.3,50.2,30.00,NE,55,3.0,3.0,49,0.00,,,0.00,Wunderground v.1.15,2013-05-08 14:32:00,
2013-05-08 10:33:00,70.2,49.6,30.00,ENE,76,3.0,3.0,48,0.00,,,0.00,Wunderground v.1.15,2013-05-08 14:33:00,
2013-05-08 10:34:00,70.2,49.6,30.00,East,80,3.0,3.0,48,0.00,,,0.00,Wunderground v.1.15,2013-05-08 14:34:00,
2013-05-08 10:35:00,70.1,49.5,30.00,ENE,74,3.0,5.0,48,0.00,,,0.00,Wunderground v.1.15,2013-05-08 14:35:00,
2013-05-08 10:37:00,70.0,49.4,30.00,ENE,62,3.0,5.0,48,0.00,,,0.00,Wunderground v.1.15,2013-05-08 14:37:00,
2013-05-08 10:39:00,70.3,49.7,30.00,North,5,3.0,5.0,48,0.00,,,0.00,Wunderground v.1.15,2013-05-08 14:39:00,
2013-05-08 10:42:00,70.7,49.5,30.00,ENE,78,3.0,5.0,47,0.00,,,0.00,Wunderground v.1.15,2013-05-08 14:42:00,
2013-05-08 10:43:00,70.7,49.5,30.00,NE,48,3.0,5.0,47,0.00,,,0.00,Wunderground v.1.15,2013-05-08 14:43:00,
2013-05-08 10:44:00,70.9,49.7,30.00,NE,55,3.0,5.0,47,0.00,,,0.00,Wunderground v.1.15,2013-05-08 14:44:00,
2013-05-08 10:48:00,71.2,49.4,30.00,NE,50,3.0,5.0,46,0.00,,,0.00,Wunderground v.1.15,2013-05-08 14:48:00,
2013-05-08 10:49:00,71.3,49.4,30.00,NE,56,3.0,5.0,46,0.00,,,0.00,Wunderground v.1.15,2013-05-08 14:49:00,
2013-05-08 10:50:00,71.3,49.4,30.00,NE,55,3.0,3.0,46,0.00,,,0.00,Wunderground v.1.15,2013-05-08 14:50:00,
2013-05-08 10:54:00,71.6,49.7,30.00,NE,56,2.0,4.0,46,0.00,,,0.00,Wunderground v.1.15,2013-05-08 14:54:00,
2013-05-08 10:55:00,71.7,49.2,30.00,NE,55,2.0,4.0,45,0.00,,,0.00,Wunderground v.1.15,2013-05-08 14:55:00,
2013-05-08 10:56:00,71.8,49.3,30.00,ENE,62,2.0,4.0,45,0.00,,,0.00,Wunderground v.1.15,2013-05-08 14:56:00,
2013-05-08 10:58:00,72.0,50.1,30.00,North,358,2.0,4.0,46,0.00,,,0.00,Wunderground v.1.15,2013-05-08 14:58:00,
2013-05-08 10:59:00,72.2,49.7,30.00,North,358,2.0,4.0,45,0.00,,,0.00,Wunderground v.1.15,2013-05-08 14:59:00,
2013-05-08 11:04:00,72.4,50.4,30.00,ENE,59,1.0,3.0,46,0.00,,,0.00,Wunderground v.1.15,2013-05-08 15:04:00,
2013-05-08 11:05:00,72.6,50.0,30.00,North,8,1.0,3.0,45,0.00,,,0.00,Wunderground v.1.15,2013-05-08 15:05:00,
2013-05-08 11:06:00,72.8,50.2,30.00,North,8,1.0,3.0,45,0.00,,,0.00,Wunderground v.1.15,2013-05-08 15:06:00,
2013-05-08 11:09:00,73.6,49.7,30.00,NNW,344,1.0,3.0,43,0.00,,,0.00,Wunderground v.1.15,2013-05-08 15:09:00,
2013-05-08 11:10:00,74.0,50.1,30.00,NNW,346,1.0,1.0,43,0.00,,,0.00,Wunderground v.1.15,2013-05-08 15:10:00,
2013-05-08 11:12:00,74.4,50.4,30.00,NE,49,1.0,1.0,43,0.00,,,0.00,Wunderground v.1.15,2013-05-08 15:12:00,
2013-05-08 11:14:00,74.9,50.3,30.00,NNW,344,0.0,1.0,42,0.00,,,0.00,Wunderground v.1.15,2013-05-08 15:14:00,
2013-05-08 11:17:00,75.5,50.8,30.00,NE,55,0.0,1.0,42,0.00,,,0.00,Wunderground v.1.15,2013-05-08 15:17:00,
2013-05-08 11:18:00,75.7,51.0,30.00,NE,55,0.0,1.0,42,0.00,,,0.00,Wunderground v.1.15,2013-05-08 15:18:00,
2013-05-08 11:19:00,75.8,51.1,30.00,NE,40,1.0,2.0,42,0.00,,,0.00,Wunderground v.1.15,2013-05-08 15:19:00,
2013-05-08 11:22:00,75.5,49.5,30.00,NE,52,1.0,5.0,40,0.00,,,0.00,Wunderground v.1.15,2013-05-08 15:22:00,
2013-05-08 11:23:00,75.4,50.1,30.00,NE,55,1.0,5.0,41,0.00,,,0.00,Wunderground v.1.15,2013-05-08 15:23:00,
2013-05-08 11:27:00,75.2,50.5,29.99,North,351,2.0,5.0,42,0.00,,,0.00,Wunderground v.1.15,2013-05-08 15:27:00,
2013-05-08 11:28:00,75.3,50.0,29.99,WNW,287,2.0,5.0,41,0.00,,,0.00,Wunderground v.1.15,2013-05-08 15:28:00,
2013-05-08 11:29:00,75.5,50.1,30.00,North,4,2.0,5.0,41,0.00,,,0.00,Wunderground v.1.15,2013-05-08 15:29:00,
2013-05-08 11:30:00,75.7,49.7,29.99,ENE,59,2.0,2.0,40,0.00,,,0.00,Wunderground v.1.15,2013-05-08 15:30:00,
2013-05-08 11:31:00,75.8,50.4,29.99,ENE,59,2.0,3.0,41,0.00,,,0.00,Wunderground v.1.15,2013-05-08 15:31:00,
2013-05-08 11:32:00,75.9,49.8,30.00,North,360,2.0,3.0,40,0.00,,,0.00,Wunderground v.1.15,2013-05-08 15:32:00,
2013-05-08 11:35:00,75.8,49.8,29.99,ENE,66,2.0,4.0,40,0.00,,,0.00,Wunderground v.1.15,2013-05-08 15:35:00,
2013-05-08 11:36:00,75.8,50.4,29.99,NNE,12,2.0,4.0,41,0.00,,,0.00,Wunderground v.1.15,2013-05-08 15:36:00,
2013-05-08 11:39:00,75.9,49.8,29.99,NNE,21,2.0,4.0,40,0.00,,,0.00,Wunderground v.1.15,2013-05-08 15:39:00,
2013-05-08 11:40:00,75.9,49.8,29.99,East,80,2.0,6.0,40,0.00,,,0.00,Wunderground v.1.15,2013-05-08 15:40:00,
2013-05-08 11:44:00,75.4,48.7,29.99,NE,45,3.0,6.0,39,0.00,,,0.00,Wunderground v.1.15,2013-05-08 15:44:00,
2013-05-08 11:45:00,75.4,50.1,29.99,NE,43,3.0,6.0,41,0.00,,,0.00,Wunderground v.1.15,2013-05-08 15:45:00,
2013-05-08 11:49:00,75.7,50.3,29.99,NE,56,3.0,6.0,41,0.00,,,0.00,Wunderground v.1.15,2013-05-08 15:49:00,
2013-05-08 11:51:00,75.9,50.5,29.99,NE,52,3.0,3.0,41,0.00,,,0.00,Wunderground v.1.15,2013-05-08 15:51:00,
2013-05-08 11:55:00,76.6,49.1,29.99,East,81,2.0,3.0,38,0.00,,,0.00,Wunderground v.1.15,2013-05-08 15:55:00,
2013-05-08 11:56:00,76.6,50.5,29.99,NE,52,2.0,3.0,40,0.00,,,0.00,Wunderground v.1.15,2013-05-08 15:56:00,
2013-05-08 11:57:00,76.7,50.6,29.99,North,354,2.0,4.0,40,0.00,,,0.00,Wunderground v.1.15,2013-05-08 15:57:00,
2013-05-08 11:59:00,77.0,49.4,29.99,NE,52,2.0,5.0,38,0.00,,,0.00,Wunderground v.1.15,2013-05-08 15:59:00,
2013-05-08 12:00:00,77.1,49.5,29.99,NW,326,2.0,2.0,38,0.00,,,0.00,Wunderground v.1.15,2013-05-08 16:00:00,
2013-05-08 12:02:00,77.4,49.8,29.99,North,5,3.0,10.0,38,0.00,,,0.00,Wunderground v.1.15,2013-05-08 16:02:00,
2013-05-08 12:04:00,77.4,49.8,29.99,NNE,23,3.0,10.0,38,0.00,,,0.00,Wunderground v.1.15,2013-05-08 16:04:00,
2013-05-08 12:07:00,77.5,49.2,29.99,NE,56,3.0,10.0,37,0.00,,,0.00,Wunderground v.1.15,2013-05-08 16:07:00,
2013-05-08 12:09:00,77.3,49.0,29.99,NNW,347,3.0,10.0,37,0.00,,,0.00,Wunderground v.1.15,2013-05-08 16:09:00,
2013-05-08 12:11:00,77.3,50.4,29.99,ENE,57,4.0,4.0,39,0.00,,,0.00,Wunderground v.1.15,2013-05-08 16:11:00,
2013-05-08 12:12:00,77.4,49.8,29.99,NE,50,3.0,4.0,38,0.00,,,0.00,Wunderground v.1.15,2013-05-08 16:12:00,
2013-05-08 12:13:00,77.5,49.9,29.99,NE,56,3.0,4.0,38,0.00,,,0.00,Wunderground v.1.15,2013-05-08 16:13:00,
2013-05-08 12:15:00,77.4,49.1,29.99,ENE,71,3.0,4.0,37,0.00,,,0.00,Wunderground v.1.15,2013-05-08 16:15:00,
2013-05-08 12:16:00,77.2,49.6,29.99,ENE,60,3.0,4.0,38,0.00,,,0.00,Wunderground v.1.15,2013-05-08 16:16:00,
2013-05-08 12:20:00,77.6,49.3,29.99,ENE,63,3.0,3.0,37,0.00,,,0.00,Wunderground v.1.15,2013-05-08 16:20:00,
2013-05-08 12:21:00,77.8,49.4,29.99,NNE,28,3.0,5.0,37,0.00,,,0.00,Wunderground v.1.15,2013-05-08 16:21:00,
2013-05-08 12:23:00,78.1,49.7,29.99,ENE,63,3.0,9.0,37,0.00,,,0.00,Wunderground v.1.15,2013-05-08 16:23:00,
2013-05-08 12:25:00,78.1,49.0,29.99,ENE,62,3.0,9.0,36,0.00,,,0.00,Wunderground v.1.15,2013-05-08 16:25:00,
2013-05-08 12:26:00,78.1,50.4,29.98,NW,306,3.0,9.0,38,0.00,,,0.00,Wunderground v.1.15,2013-05-08 16:26:00,
2013-05-08 12:29:00,78.1,49.7,29.98,SSW,201,3.0,9.0,37,0.00,,,0.00,Wunderground v.1.15,2013-05-08 16:29:00,
2013-05-08 12:30:00,78.0,49.6,29.98,NNE,28,4.0,4.0,37,0.00,,,0.00,Wunderground v.1.15,2013-05-08 16:30:00,
2013-05-08 12:32:00,78.0,48.9,29.98,ENE,76,4.0,4.0,36,0.00,,,0.00,Wunderground v.1.15,2013-05-08 16:32:00,
2013-05-08 12:34:00,78.1,49.0,29.98,West,276,4.0,4.0,36,0.00,,,0.00,Wunderground v.1.15,2013-05-08 16:34:00,
2013-05-08 12:35:00,78.2,49.8,29.98,NNE,29,4.0,4.0,37,0.00,,,0.00,Wunderground v.1.15,2013-05-08 16:35:00,
2013-05-08 12:38:00,78.2,50.5,29.98,North,7,3.0,4.0,38,0.00,,,0.00,Wunderground v.1.15,2013-05-08 16:38:00,
2013-05-08 12:39:00,78.3,49.1,29.98,ENE,59,3.0,4.0,36,0.00,,,0.00,Wunderground v.1.15,2013-05-08 16:39:00,
2013-05-08 12:42:00,78.3,49.1,29.98,NE,52,3.0,5.0,36,0.00,,,0.00,Wunderground v.1.15,2013-05-08 16:42:00,
2013-05-08 12:43:00,78.2,48.3,29.98,NE,45,3.0,5.0,35,0.00,,,0.00,Wunderground v.1.15,2013-05-08 16:43:00,
2013-05-08 12:45:00,78.0,48.9,29.98,NNE,30,3.0,7.0,36,0.00,,,0.00,Wunderground v.1.15,2013-05-08 16:45:00,
2013-05-08 12:48:00,78.2,49.1,29.98,NNE,19,4.0,7.0,36,0.00,,,0.00,Wunderground v.1.15,2013-05-08 16:48:00,
2013-05-08 12:51:00,78.5,48.6,29.98,NE,50,4.0,4.0,35,0.00,,,0.00,Wunderground v.1.15,2013-05-08 16:51:00,
2013-05-08 12:52:00,78.5,48.6,29.98,NNE,18,4.0,4.0,35,0.00,,,0.00,Wunderground v.1.15,2013-05-08 16:52:00,
2013-05-08 12:55:00,78.0,47.4,29.98,ENE,76,4.0,8.0,34,0.00,,,0.00,Wunderground v.1.15,2013-05-08 16:55:00,
2013-05-08 12:59:00,77.0,48.0,29.98,NE,35,5.0,9.0,36,0.00,,,0.00,Wunderground v.1.15,2013-05-08 16:59:00,
2013-05-08 13:00:00,77.0,48.7,29.98,North,11,5.0,5.0,37,0.00,,,0.00,Wunderground v.1.15,2013-05-08 17:00:00,
2013-05-08 13:02:00,77.2,48.2,29.97,NE,38,5.0,9.0,36,0.00,,,0.00,Wunderground v.1.15,2013-05-08 17:02:00,
2013-05-08 13:03:00,77.5,49.2,29.97,NE,35,6.0,9.0,37,0.00,,,0.00,Wunderground v.1.15,2013-05-08 17:03:00,
2013-05-08 13:05:00,77.7,48.6,29.97,NE,48,5.0,9.0,36,0.00,,,0.00,Wunderground v.1.15,2013-05-08 17:05:00,
2013-05-08 13:06:00,77.9,48.8,29.97,NNE,26,5.0,9.0,36,0.00,,,0.00,Wunderground v.1.15,2013-05-08 17:06:00,
2013-05-08 13:07:00,78.1,49.7,29.97,NE,34,5.0,9.0,37,0.00,,,0.00,Wunderground v.1.15,2013-05-08 17:07:00,
2013-05-08 13:08:00,78.3,49.1,29.97,ENE,57,4.0,9.0,36,0.00,,,0.00,Wunderground v.1.15,2013-05-08 17:08:00,
2013-05-08 13:12:00,78.4,50.7,29.97,ENE,59,4.0,8.0,38,0.00,,,0.00,Wunderground v.1.15,2013-05-08 17:12:00,
2013-05-08 13:13:00,78.5,50.1,29.97,ENE,63,3.0,8.0,37,0.00,,,0.00,Wunderground v.1.15,2013-05-08 17:13:00,
2013-05-08 13:16:00,78.5,49.3,29.97,NNE,31,3.0,8.0,36,0.00,,,0.00,Wunderground v.1.15,2013-05-08 17:16:00,
2013-05-08 13:17:00,78.6,50.1,29.97,NE,49,3.0,8.0,37,0.00,,,0.00,Wunderground v.1.15,2013-05-08 17:17:00,
2013-05-08 13:19:00,78.8,51.0,29.97,East,82,3.0,8.0,38,0.00,,,0.00,Wunderground v.1.15,2013-05-08 17:19:00,
2013-05-08 13:21:00,78.3,51.3,29.96,East,80,3.0,5.0,39,0.00,,,0.00,Wunderground v.1.15,2013-05-08 17:21:00,
2013-05-08 13:22:00,77.9,50.2,29.96,East,91,3.0,5.0,38,0.00,,,0.00,Wunderground v.1.15,2013-05-08 17:22:00,
2013-05-08 18:47:00,73.7,51.6,29.93,ESE,116,2.0,2.0,46,0.00,,,0.00,Wunderground v.1.15,2013-05-08 22:47:00,
2013-05-08 18:48:00,73.7,52.8,29.93,South,178,2.0,12.0,48,0.00,,,0.00,Wunderground v.1.15,2013-05-08 22:48:00,
2013-05-08 18:49:00,73.6,52.1,29.92,SSW,196,2.0,12.0,47,0.00,,,0.00,Wunderground v.1.15,2013-05-08 22:49:00,
2013-05-08 18:52:00,73.5,50.9,29.93,South,178,2.0,12.0,45,0.00,,,0.00,Wunderground v.1.15,2013-05-08 22:52:00,
2013-05-08 18:53:00,73.5,51.4,29.93,SE,130,2.0,12.0,46,0.00,,,0.00,Wunderground v.1.15,2013-05-08 22:53:00,
2013-05-08 18:56:00,73.8,51.7,29.93,SE,130,2.0,12.0,46,0.00,,,0.00,Wunderground v.1.15,2013-05-08 22:56:00,
2013-05-08 18:58:00,73.9,51.2,29.93,SE,130,2.0,2.0,45,0.00,,,0.00,Wunderground v.1.15,2013-05-08 22:58:00,
2013-05-08 18:59:00,73.9,51.8,29.93,SE,130,2.0,2.0,46,0.00,,,0.00,Wunderground v.1.15,2013-05-08 22:59:00,
2013-05-08 19:01:00,73.9,51.8,29.92,SE,130,2.0,2.0,46,0.00,,,0.00,Wunderground v.1.15,2013-05-08 23:01:00,
2013-05-08 19:03:00,74.0,51.3,29.93,SE,130,1.0,2.0,45,0.00,,,0.00,Wunderground v.1.15,2013-05-08 23:03:00,
2013-05-08 19:04:00,74.1,51.4,29.93,SE,130,1.0,3.0,45,0.00,,,0.00,Wunderground v.1.15,2013-05-08 23:04:00,
2013-05-08 19:05:00,74.2,51.5,29.93,SE,130,1.0,3.0,45,0.00,,,0.00,Wunderground v.1.15,2013-05-08 23:05:00,
2013-05-08 19:09:00,74.3,51.0,29.93,SE,128,2.0,3.0,44,0.00,,,0.00,Wunderground v.1.15,2013-05-08 23:09:00,
2013-05-08 19:10:00,74.3,51.0,29.92,SE,128,2.0,2.0,44,0.00,,,0.00,Wunderground v.1.15,2013-05-08 23:10:00,
2013-05-08 19:13:00,74.2,53.8,29.92,ESE,115,2.0,2.0,49,0.00,,,0.00,Wunderground v.1.15,2013-05-08 23:13:00,
2013-05-08 19:15:00,74.1,51.4,29.92,East,88,2.0,3.0,45,0.00,,,0.00,Wunderground v.1.15,2013-05-08 23:15:00,
2013-05-08 19:17:00,74.0,51.3,29.92,ENE,75,2.0,3.0,45,0.00,,,0.00,Wunderground v.1.15,2013-05-08 23:17:00,
2013-05-08 19:18:00,74.0,51.3,29.92,ESE,121,2.0,3.0,45,0.00,,,0.00,Wunderground v.1.15,2013-05-08 23:18:00,
2013-05-08 19:21:00,73.9,51.8,29.92,ESE,103,2.0,2.0,46,0.00,,,0.00,Wunderground v.1.15,2013-05-08 23:21:00,
2013-05-08 19:22:00,73.8,51.7,29.92,ESE,104,2.0,2.0,46,0.00,,,0.00,Wunderground v.1.15,2013-05-08 23:22:00,
2013-05-08 19:23:00,73.8,51.7,29.92,ESE,104,2.0,2.0,46,0.00,,,0.00,Wunderground v.1.15,2013-05-08 23:23:00,
2013-05-08 19:24:00,73.8,51.1,29.93,ESE,103,2.0,2.0,45,0.00,,,0.00,Wunderground v.1.15,2013-05-08 23:24:00,
2013-05-08 19:26:00,73.7,51.0,29.92,ENE,74,2.0,4.0,45,0.00,,,0.00,Wunderground v.1.15,2013-05-08 23:26:00,
2013-05-08 19:29:00,73.6,50.9,29.92,ENE,74,2.0,4.0,45,0.00,,,0.00,Wunderground v.1.15,2013-05-08 23:29:00,
2013-05-08 19:30:00,73.6,50.9,29.92,East,92,2.0,2.0,45,0.00,,,0.00,Wunderground v.1.15,2013-05-08 23:30:00,
2013-05-08 19:31:00,73.6,50.9,29.92,ESE,102,2.0,2.0,45,0.00,,,0.00,Wunderground v.1.15,2013-05-08 23:31:00,
2013-05-08 19:34:00,73.5,51.4,29.92,East,91,2.0,3.0,46,0.00,,,0.00,Wunderground v.1.15,2013-05-08 23:34:00,
2013-05-08 19:35:00,73.4,51.4,29.92,East,91,2.0,3.0,46,0.00,,,0.00,Wunderground v.1.15,2013-05-08 23:35:00,
2013-05-08 19:39:00,73.3,51.8,29.92,East,90,2.0,3.0,47,0.00,,,0.00,Wunderground v.1.15,2013-05-08 23:39:00,
2013-05-08 19:40:00,73.2,51.8,29.92,East,89,2.0,2.0,47,0.00,,,0.00,Wunderground v.1.15,2013-05-08 23:40:00,
2013-05-08 19:41:00,73.2,53.4,29.92,East,90,2.0,2.0,50,0.00,,,0.00,Wunderground v.1.15,2013-05-08 23:41:00,
2013-05-08 19:43:00,73.1,51.7,29.92,ENE,75,2.0,3.0,47,0.00,,,0.00,Wunderground v.1.15,2013-05-08 23:43:00,
2013-05-08 19:47:00,73.2,50.6,29.92,ESE,104,2.0,4.0,45,0.00,,,0.00,Wunderground v.1.15,2013-05-08 23:47:00,
2013-05-08 19:49:00,73.3,51.3,29.92,East,93,2.0,4.0,46,0.00,,,0.00,Wunderground v.1.15,2013-05-08 23:49:00,
2013-05-08 19:50:00,73.3,51.8,29.92,ENE,74,2.0,2.0,47,0.00,,,0.00,Wunderground v.1.15,2013-05-08 23:50:00,
2013-05-08 19:52:00,73.4,51.9,29.92,ENE,76,2.0,3.0,47,0.00,,,0.00,Wunderground v.1.15,2013-05-08 23:52:00,
2013-05-08 19:53:00,73.5,52.0,29.92,ENE,73,3.0,3.0,47,0.00,,,0.00,Wunderground v.1.15,2013-05-08 23:53:00,
2013-05-08 19:55:00,73.5,52.0,29.93,ENE,73,2.0,3.0,47,0.00,,,0.00,Wunderground v.1.15,2013-05-08 23:55:00,
2013-05-08 19:57:00,73.5,52.0,29.93,ENE,73,2.0,3.0,47,0.00,,,0.00,Wunderground v.1.15,2013-05-08 23:57:00,
2013-05-08 19:59:00,73.5,52.0,29.92,ENE,78,2.0,3.0,47,0.00,,,0.00,Wunderground v.1.15,2013-05-08 23:59:00,
2013-05-08 20:02:00,73.5,51.4,29.93,ENE,77,1.0,2.0,46,0.00,,,0.00,Wunderground v.1.15,2013-05-09 00:02:00,
2013-05-08 20:03:00,73.4,51.4,29.93,ENE,71,1.0,2.0,46,0.00,,,0.00,Wunderground v.1.15,2013-05-09 00:03:00,
2013-05-08 20:04:00,73.4,51.9,29.93,ENE,71,1.0,2.0,47,0.00,,,0.00,Wunderground v.1.15,2013-05-09 00:04:00,
2013-05-08 20:06:00,73.3,51.8,29.93,ENE,71,2.0,2.0,47,0.00,,,0.00,Wunderground v.1.15,2013-05-09 00:06:00,
2013-05-08 20:08:00,73.2,51.8,29.93,ENE,78,2.0,2.0,47,0.00,,,0.00,Wunderground v.1.15,2013-05-09 00:08:00,
2013-05-08 20:10:00,73.1,51.7,29.93,East,81,1.0,2.0,47,0.00,,,0.00,Wunderground v.1.15,2013-05-09 00:10:00,
2013-05-08 20:11:00,73.0,51.6,29.93,ENE,78,2.0,2.0,47,0.00,,,0.00,Wunderground v.1.15,2013-05-09 00:11:00,
2013-05-08 20:15:00,72.7,51.9,29.93,East,87,2.0,2.0,48,0.00,,,0.00,Wunderground v.1.15,2013-05-09 00:15:00,
2013-05-08 20:17:00,72.5,52.2,29.93,ENE,73,2.0,2.0,49,0.00,,,0.00,Wunderground v.1.15,2013-05-09 00:17:00,
2013-05-08 20:18:00,72.4,52.2,29.94,East,87,2.0,4.0,49,0.00,,,0.00,Wunderground v.1.15,2013-05-09 00:18:00,
2013-05-08 20:22:00,72.0,51.8,29.93,ENE,74,2.0,3.0,49,0.00,,,0.00,Wunderground v.1.15,2013-05-09 00:22:00,
2013-05-08 20:23:00,72.0,51.8,29.93,East,94,2.0,3.0,49,0.00,,,0.00,Wunderground v.1.15,2013-05-09 00:23:00,
2013-05-08 20:24:00,71.9,51.7,29.94,ESE,114,2.0,3.0,49,0.00,,,0.00,Wunderground v.1.15,2013-05-09 00:24:00,
2013-05-08 20:25:00,71.8,52.2,29.94,East,100,3.0,3.0,50,0.00,,,0.00,Wunderground v.1.15,2013-05-09 00:25:00,
2013-05-08 20:27:00,71.6,51.4,29.94,SE,135,2.0,3.0,49,0.00,,,0.00,Wunderground v.1.15,2013-05-09 00:27:00,
2013-05-08 20:30:00,71.4,52.3,29.94,East,81,2.0,3.0,51,0.00,,,0.00,Wunderground v.1.15,2013-05-09 00:30:00,
2013-05-08 20:32:00,71.2,51.6,29.94,ENE,70,2.0,3.0,50,0.00,,,0.00,Wunderground v.1.15,2013-05-09 00:32:00,
2013-05-08 20:34:00,71.1,51.5,29.94,East,90,2.0,3.0,50,0.00,,,0.00,Wunderground v.1.15,2013-05-09 00:34:00,
2013-05-08 20:38:00,71.0,51.4,29.94,East,89,1.0,3.0,50,0.00,,,0.00,Wunderground v.1.15,2013-05-09 00:38:00,
2013-05-08 20:39:00,70.9,51.3,29.94,East,81,1.0,3.0,50,0.00,,,0.00,Wunderground v.1.15,2013-05-09 00:39:00,
2013-05-08 20:41:00,70.9,51.3,29.94,East,81,1.0,1.0,50,0.00,,,0.00,Wunderground v.1.15,2013-05-09 00:41:00,
2013-05-08 20:44:00,70.9,51.9,29.94,East,81,1.0,1.0,51,0.00,,,0.00,Wunderground v.1.15,2013-05-09 00:44:00,
2013-05-08 20:45:00,70.8,51.2,29.94,East,81,1.0,1.0,50,0.00,,,0.00,Wunderground v.1.15,2013-05-09 00:45:00,
2013-05-08 20:46:00,70.7,51.1,29.94,East,81,1.0,2.0,50,0.00,,,0.00,Wunderground v.1.15,2013-05-09 00:46:00,
2013-05-08 20:49:00,70.6,51.1,29.94,ESE,102,1.0,2.0,50,0.00,,,0.00,Wunderground v.1.15,2013-05-09 00:49:00,
2013-05-08 20:50:00,70.6,51.6,29.94,East,93,1.0,1.0,51,0.00,,,0.00,Wunderground v.1.15,2013-05-09 00:50:00,
2013-05-08 20:54:00,70.4,51.4,29.94,East,93,1.0,1.0,51,0.00,,,0.00,Wunderground v.1.15,2013-05-09 00:54:00,
2013-05-08 20:55:00,70.3,51.8,29.94,East,93,1.0,2.0,52,0.00,,,0.00,Wunderground v.1.15,2013-05-09 00:55:00,
2013-05-08 20:56:00,70.2,52.3,29.94,East,92,1.0,2.0,53,0.00,,,0.00,Wunderground v.1.15,2013-05-09 00:56:00,
2013-05-08 20:57:00,70.0,51.6,29.94,East,93,1.0,2.0,52,0.00,,,0.00,Wunderground v.1.15,2013-05-09 00:57:00,
2013-05-08 21:00:00,69.9,51.5,29.94,East,93,1.0,2.0,52,0.00,,,0.00,Wunderground v.1.15,2013-05-09 01:00:00,
2013-05-08 21:02:00,69.8,50.9,29.94,ENE,78,2.0,2.0,51,0.00,,,0.00,Wunderground v.1.15,2013-05-09 01:02:00,
2013-05-08 21:04:00,69.8,51.4,29.94,ENE,77,2.0,2.0,52,0.00,,,0.00,Wunderground v.1.15,2013-05-09 01:04:00,
2013-05-08 21:07:00,69.8,50.9,29.94,ENE,77,2.0,2.0,51,0.00,,,0.00,Wunderground v.1.15,2013-05-09 01:07:00,
2013-05-08 21:08:00,69.8,50.9,29.94,ENE,76,2.0,2.0,51,0.00,,,0.00,Wunderground v.1.15,2013-05-09 01:08:00,
2013-05-08 21:12:00,69.7,51.3,29.95,ENE,76,1.0,1.0,52,0.00,,,0.00,Wunderground v.1.15,2013-05-09 01:12:00,
2013-05-08 21:14:00,69.6,51.2,29.95,ENE,76,1.0,1.0,52,0.00,,,0.00,Wunderground v.1.15,2013-05-09 01:14:00,
2013-05-08 21:15:00,69.6,51.2,29.95,ENE,75,1.0,1.0,52,0.00,,,0.00,Wunderground v.1.15,2013-05-09 01:15:00,
2013-05-08 21:18:00,69.4,51.5,29.95,ENE,76,0.0,1.0,53,0.00,,,0.00,Wunderground v.1.15,2013-05-09 01:18:00,
2013-05-08 21:20:00,69.3,51.4,29.95,ENE,70,0.0,1.0,53,0.00,,,0.00,Wunderground v.1.15,2013-05-09 01:20:00,
2013-05-08 21:23:00,69.2,51.8,29.95,ENE,70,0.0,1.0,54,0.00,,,0.00,Wunderground v.1.15,2013-05-09 01:23:00,
2013-05-08 21:25:00,69.1,51.8,29.95,ENE,70,0.0,1.0,54,0.00,,,0.00,Wunderground v.1.15,2013-05-09 01:25:00,
2013-05-08 21:26:00,69.1,51.8,29.95,ENE,70,0.0,1.0,54,0.00,,,0.00,Wunderground v.1.15,2013-05-09 01:26:00,
2013-05-08 21:27:00,69.0,52.2,29.95,ENE,70,0.0,1.0,55,0.00,,,0.00,Wunderground v.1.15,2013-05-09 01:27:00,
2013-05-08 21:29:00,69.0,52.2,29.95,NE,56,0.0,2.0,55,0.00,,,0.00,Wunderground v.1.15,2013-05-09 01:29:00,
2013-05-08 21:31:00,68.9,52.6,29.95,NE,55,0.0,0.0,56,0.00,,,0.00,Wunderground v.1.15,2013-05-09 01:31:00,
2013-05-08 21:32:00,68.8,52.9,29.95,NE,39,0.0,2.0,57,0.00,,,0.00,Wunderground v.1.15,2013-05-09 01:32:00,
2013-05-08 21:37:00,68.2,53.8,29.96,NE,42,1.0,2.0,60,0.00,,,0.00,Wunderground v.1.15,2013-05-09 01:37:00,
2013-05-08 21:39:00,68.0,53.6,29.96,NNE,24,1.0,2.0,60,0.00,,,0.00,Wunderground v.1.15,2013-05-09 01:39:00,
2013-05-08 21:40:00,67.9,54.0,29.95,NNE,24,1.0,1.0,61,0.00,,,0.00,Wunderground v.1.15,2013-05-09 01:40:00,
2013-05-08 21:44:00,67.5,54.0,29.96,NNE,12,1.0,2.0,62,0.00,,,0.00,Wunderground v.1.15,2013-05-09 01:44:00,
2013-05-08 21:45:00,67.5,54.0,29.96,NNE,12,1.0,2.0,62,0.00,,,0.00,Wunderground v.1.15,2013-05-09 01:45:00,
2013-05-08 21:49:00,67.2,53.7,29.96,North,10,1.0,2.0,62,0.00,,,0.00,Wunderground v.1.15,2013-05-09 01:49:00,
2013-05-08 21:50:00,67.2,54.2,29.96,North,10,1.0,1.0,63,0.00,,,0.00,Wunderground v.1.15,2013-05-09 01:50:00,
2013-05-08 21:51:00,67.1,54.1,29.96,North,10,1.0,2.0,63,0.00,,,0.00,Wunderground v.1.15,2013-05-09 01:51:00,
2013-05-08 21:56:00,66.9,53.9,29.96,North,10,0.0,2.0,63,0.00,,,0.00,Wunderground v.1.15,2013-05-09 01:56:00,
2013-05-08 21:57:00,66.9,53.9,29.96,North,10,0.0,2.0,63,0.00,,,0.00,Wunderground v.1.15,2013-05-09 01:57:00,
2013-05-08 21:58:00,66.8,53.8,29.96,North,10,0.0,2.0,63,0.00,,,0.00,Wunderground v.1.15,2013-05-09 01:58:00,
2013-05-08 21:59:00,66.8,53.8,29.96,North,10,0.0,2.0,63,0.00,,,0.00,Wunderground v.1.15,2013-05-09 01:59:00,
2013-05-08 22:01:00,66.7,54.1,29.96,North,10,0.0,0.0,64,0.00,,,0.00,Wunderground v.1.15,2013-05-09 02:01:00,
2013-05-08 22:03:00,66.6,54.0,29.96,North,10,0.0,0.0,64,0.00,,,0.00,Wunderground v.1.15,2013-05-09 02:03:00,
2013-05-08 22:05:00,66.5,53.9,29.96,North,10,0.0,0.0,64,0.00,,,0.00,Wunderground v.1.15,2013-05-09 02:05:00,
2013-05-08 22:06:00,66.5,53.9,29.96,North,10,0.0,0.0,64,0.00,,,0.00,Wunderground v.1.15,2013-05-09 02:06:00,
2013-05-08 22:08:00,66.4,53.8,29.96,North,10,0.0,1.0,64,0.00,,,0.00,Wunderground v.1.15,2013-05-09 02:08:00,
2013-05-08 22:12:00,66.2,54.1,29.96,North,10,0.0,0.0,65,0.00,,,0.00,Wunderground v.1.15,2013-05-09 02:12:00,
2013-05-08 22:13:00,66.1,54.0,29.96,North,10,0.0,0.0,65,0.00,,,0.00,Wunderground v.1.15,2013-05-09 02:13:00,
2013-05-08 22:15:00,66.0,53.9,29.96,North,10,0.0,0.0,65,0.00,,,0.00,Wunderground v.1.15,2013-05-09 02:15:00,
2013-05-08 22:19:00,65.9,54.2,29.96,North,10,0.0,0.0,66,0.00,,,0.00,Wunderground v.1.15,2013-05-09 02:19:00,
2013-05-08 22:20:00,65.9,54.6,29.96,North,10,0.0,0.0,67,0.00,,,0.00,Wunderground v.1.15,2013-05-09 02:20:00,
2013-05-08 22:21:00,65.9,54.2,29.97,North,10,0.0,1.0,66,0.00,,,0.00,Wunderground v.1.15,2013-05-09 02:21:00,
2013-05-08 22:24:00,65.9,53.8,29.97,NNE,18,0.0,1.0,65,0.00,,,0.00,Wunderground v.1.15,2013-05-09 02:24:00,
2013-05-08 22:26:00,65.9,54.2,29.97,NNE,18,0.0,1.0,66,0.00,,,0.00,Wunderground v.1.15,2013-05-09 02:26:00,
2013-05-08 22:28:00,65.9,54.2,29.97,NNE,19,0.0,1.0,66,0.00,,,0.00,Wunderground v.1.15,2013-05-09 02:28:00,
2013-05-08 22:30:00,65.9,53.8,29.97,NNE,18,0.0,0.0,65,0.00,,,0.00,Wunderground v.1.15,2013-05-09 02:30:00,
2013-05-08 22:31:00,65.9,53.8,29.97,NNE,19,1.0,1.0,65,0.00,,,0.00,Wunderground v.1.15,2013-05-09 02:31:00,
2013-05-08 22:32:00,65.8,54.1,29.97,NNE,18,1.0,1.0,66,0.00,,,0.00,Wunderground v.1.15,2013-05-09 02:32:00,
2013-05-08 22:33:00,65.8,53.7,29.97,NE,35,1.0,1.0,65,0.00,,,0.00,Wunderground v.1.15,2013-05-09 02:33:00,
2013-05-08 22:35:00,65.8,53.7,29.97,NE,38,1.0,1.0,65,0.00,,,0.00,Wunderground v.1.15,2013-05-09 02:35:00,
2013-05-08 22:39:00,65.6,53.5,29.97,East,81,1.0,2.0,65,0.00,,,0.00,Wunderground v.1.15,2013-05-09 02:39:00,
2013-05-08 22:40:00,65.6,53.5,29.97,ENE,74,1.0,1.0,65,0.00,,,0.00,Wunderground v.1.15,2013-05-09 02:40:00,
2013-05-08 22:41:00,65.6,53.5,29.97,ENE,74,1.0,1.0,65,0.00,,,0.00,Wunderground v.1.15,2013-05-09 02:41:00,
2013-05-08 22:42:00,65.6,53.5,29.97,ENE,74,1.0,1.0,65,0.00,,,0.00,Wunderground v.1.15,2013-05-09 02:42:00,
2013-05-08 22:46:00,65.5,52.6,29.97,NE,40,1.0,3.0,63,0.00,,,0.00,Wunderground v.1.15,2013-05-09 02:46:00,
2013-05-08 22:47:00,65.5,52.6,29.97,NNE,32,1.0,3.0,63,0.00,,,0.00,Wunderground v.1.15,2013-05-09 02:47:00,
2013-05-08 22:48:00,65.4,52.0,29.97,NE,52,1.0,3.0,62,0.00,,,0.00,Wunderground v.1.15,2013-05-09 02:48:00,
2013-05-08 22:50:00,65.4,52.0,29.97,NE,53,1.0,1.0,62,0.00,,,0.00,Wunderground v.1.15,2013-05-09 02:50:00,
2013-05-08 22:53:00,65.3,50.6,29.97,NE,55,1.0,1.0,59,0.00,,,0.00,Wunderground v.1.15,2013-05-09 02:53:00,
2013-05-08 22:55:00,65.2,51.0,29.97,ENE,60,0.0,1.0,60,0.00,,,0.00,Wunderground v.1.15,2013-05-09 02:55:00,
2013-05-08 22:57:00,65.2,50.0,29.97,ENE,57,1.0,1.0,58,0.00,,,0.00,Wunderground v.1.15,2013-05-09 02:57:00,
2013-05-08 22:59:00,65.2,50.0,29.97,NE,56,0.0,1.0,58,0.00,,,0.00,Wunderground v.1.15,2013-05-09 02:59:00,
2013-05-08 23:00:00,65.2,50.0,29.97,NE,56,0.0,0.0,58,0.00,,,0.00,Wunderground v.1.15,2013-05-09 03:00:00,
2013-05-08 23:02:00,65.1,49.5,29.97,North,5,0.0,1.0,57,0.00,,,0.00,Wunderground v.1.15,2013-05-09 03:02:00,
2013-05-08 23:04:00,65.0,48.9,29.97,North,5,0.0,1.0,56,0.00,,,0.00,Wunderground v.1.15,2013-05-09 03:04:00,
2013-05-08 23:06:00,65.0,49.4,29.97,North,5,0.0,1.0,57,0.00,,,0.00,Wunderground v.1.15,2013-05-09 03:06:00,
2013-05-08 23:07:00,64.9,49.3,29.97,North,5,0.0,1.0,57,0.00,,,0.00,Wunderground v.1.15,2013-05-09 03:07:00,
2013-05-08 23:08:00,64.9,49.3,29.97,North,5,0.0,1.0,57,0.00,,,0.00,Wunderground v.1.15,2013-05-09 03:08:00,
2013-05-08 23:11:00,64.7,49.1,29.97,North,5,0.0,0.0,57,0.00,,,0.00,Wunderground v.1.15,2013-05-09 03:11:00,
2013-05-08 23:12:00,64.6,49.0,29.97,North,5,0.0,0.0,57,0.00,,,0.00,Wunderground v.1.15,2013-05-09 03:12:00,
2013-05-08 23:13:00,64.6,49.0,29.97,North,5,0.0,0.0,57,0.00,,,0.00,Wunderground v.1.15,2013-05-09 03:13:00,
2013-05-08 23:16:00,64.6,48.1,29.97,ENE,60,0.0,2.0,55,0.00,,,0.00,Wunderground v.1.15,2013-05-09 03:16:00,
2013-05-08 23:18:00,64.7,47.7,29.97,ENE,60,0.0,2.0,54,0.00,,,0.00,Wunderground v.1.15,2013-05-09 03:18:00,
2013-05-08 23:19:00,64.7,47.7,29.97,ENE,60,1.0,2.0,54,0.00,,,0.00,Wunderground v.1.15,2013-05-09 03:19:00,
2013-05-08 23:21:00,64.7,47.7,29.97,ENE,62,1.0,1.0,54,0.00,,,0.00,Wunderground v.1.15,2013-05-09 03:21:00,
2013-05-08 23:22:00,64.7,47.7,29.97,ENE,60,1.0,1.0,54,0.00,,,0.00,Wunderground v.1.15,2013-05-09 03:22:00,
2013-05-08 23:24:00,64.7,47.7,29.97,ENE,62,1.0,2.0,54,0.00,,,0.00,Wunderground v.1.15,2013-05-09 03:24:00,
2013-05-08 23:25:00,64.7,47.7,29.97,ENE,67,1.0,2.0,54,0.00,,,0.00,Wunderground v.1.15,2013-05-09 03:25:00,
2013-05-08 23:26:00,64.7,47.7,29.97,ENE,60,1.0,2.0,54,0.00,,,0.00,Wunderground v.1.15,2013-05-09 03:26:00,
2013-05-08 23:27:00,64.6,47.6,29.97,ENE,74,1.0,2.0,54,0.00,,,0.00,Wunderground v.1.15,2013-05-09 03:27:00,
2013-05-08 23:31:00,64.5,48.4,29.96,ENE,60,1.0,1.0,56,0.00,,,0.00,Wunderground v.1.15,2013-05-09 03:31:00,
2013-05-08 23:32:00,64.5,48.0,29.96,ENE,60,1.0,1.0,55,0.00,,,0.00,Wunderground v.1.15,2013-05-09 03:32:00,
2013-05-08 23:34:00,64.4,47.9,29.96,ENE,63,1.0,1.0,55,0.00,,,0.00,Wunderground v.1.15,2013-05-09 03:34:00,
2013-05-08 23:38:00,64.4,47.9,29.96,ENE,63,1.0,2.0,55,0.00,,,0.00,Wunderground v.1.15,2013-05-09 03:38:00,
2013-05-08 23:40:00,64.3,47.8,29.96,ENE,61,1.0,1.0,55,0.00,,,0.00,Wunderground v.1.15,2013-05-09 03:40:00,
2013-05-08 23:43:00,64.2,47.7,29.96,ENE,69,1.0,1.0,55,0.00,,,0.00,Wunderground v.1.15,2013-05-09 03:43:00,
2013-05-08 23:44:00,64.1,48.1,29.96,ENE,69,1.0,1.0,56,0.00,,,0.00,Wunderground v.1.15,2013-05-09 03:44:00,
2013-05-08 23:46:00,64.0,48.0,29.96,East,93,1.0,3.0,56,0.00,,,0.00,Wunderground v.1.15,2013-05-09 03:46:00,
2013-05-08 23:47:00,64.0,48.0,29.96,East,81,1.0,3.0,56,0.00,,,0.00,Wunderground v.1.15,2013-05-09 03:47:00,
2013-05-08 23:50:00,63.9,47.9,29.96,ENE,74,1.0,1.0,56,0.00,,,0.00,Wunderground v.1.15,2013-05-09 03:50:00,
2013-05-08 23:52:00,63.8,47.8,29.96,ENE,73,1.0,1.0,56,0.00,,,0.00,Wunderground v.1.15,2013-05-09 03:52:00,
2013-05-08 23:54:00,63.7,47.7,29.95,ENE,59,1.0,1.0,56,0.00,,,0.00,Wunderground v.1.15,2013-05-09 03:54:00,
2013-05-08 23:55:00,63.7,47.7,29.95,ENE,59,1.0,1.0,56,0.00,,,0.00,Wunderground v.1.15,2013-05-09 03:55:00,
2013-05-08 23:57:00,63.7,48.2,29.96,ENE,59,1.0,1.0,57,0.00,,,0.00,Wunderground v.1.15,2013-05-09 03:57:00,
2013-05-08 23:59:00,63.5,48.9,29.95,ENE,59,0.0,1.0,59,0.00,,,0.00,Wunderground v.1.15,2013-05-09 03:59:00,